<?xml version="1.0" encoding="UTF-8" standalone="no" ?>
<gpx xmlns="http://www.topografix.com/GPX/1/1" xmlns:xsi="http://www.w3.org/2001/XMLSchema-instance" xsi:schemaLocation="http://www.topografix.com/GPX/1/1 http://www.topografix.com/GPX/1/1/gpx.xsd" version="1.1" creator="VisuGPX - https://www.visugpx.com">
  <metadata>
    <name>2025-04-24-46-MARCILHAC sur CELE</name>
    <desc><![CDATA[une boucle de 19 km pour 400m de dénivelé positif. Deux belles côtes mais dans la longueur et la régularité, elles passent bien. Dans une région de Cailloux, beaucoup de gariottes bien conservés, des dolmens, deux superbes villages, des sentiers bordés de murs de pierre, des paysages, à voir l'abbaye de Marcilhac. ]]></desc>
  </metadata>
  <trk>
    <name><![CDATA[MARCILHAC BOB 16 AVR 2025]]></name>
    <extensions>
      <line xmlns="http://www.topografix.com/GPX/gpx_style/0/2">
        <color>0000FF</color>
        <width>4</width>
      </line>
    </extensions>
    <trkseg>
      <trkpt lat="44.55382" lon="1.77158">
        <ele>160.2</ele>
        <time>2025-04-16T07:08:09Z</time>
      </trkpt>
      <trkpt lat="44.5538" lon="1.77129">
        <ele>160.2</ele>
        <time>2025-04-16T07:10:41Z</time>
      </trkpt>
      <trkpt lat="44.55362" lon="1.77119">
        <ele>160.68</ele>
        <time>2025-04-16T07:11:00Z</time>
      </trkpt>
      <trkpt lat="44.55324" lon="1.77109">
        <ele>160.68</ele>
        <time>2025-04-16T07:11:53Z</time>
      </trkpt>
      <trkpt lat="44.55307" lon="1.77111">
        <ele>159.24</ele>
        <time>2025-04-16T07:14:47Z</time>
      </trkpt>
      <trkpt lat="44.55297" lon="1.77107">
        <ele>158.75</ele>
        <time>2025-04-16T07:14:59Z</time>
      </trkpt>
      <trkpt lat="44.5529" lon="1.77095">
        <ele>158.75</ele>
        <time>2025-04-16T07:15:07Z</time>
      </trkpt>
      <trkpt lat="44.55288" lon="1.77082">
        <ele>158.75</ele>
        <time>2025-04-16T07:15:16Z</time>
      </trkpt>
      <trkpt lat="44.5529" lon="1.7705">
        <ele>161.16</ele>
        <time>2025-04-16T07:15:35Z</time>
      </trkpt>
      <trkpt lat="44.55285" lon="1.77037">
        <ele>161.64</ele>
        <time>2025-04-16T07:15:43Z</time>
      </trkpt>
      <trkpt lat="44.55252" lon="1.76981">
        <ele>162.6</ele>
        <time>2025-04-16T07:16:31Z</time>
      </trkpt>
      <trkpt lat="44.55258" lon="1.76972">
        <ele>163.08</ele>
        <time>2025-04-16T07:16:42Z</time>
      </trkpt>
      <trkpt lat="44.55286" lon="1.76968">
        <ele>165</ele>
        <time>2025-04-16T07:17:15Z</time>
      </trkpt>
      <trkpt lat="44.55296" lon="1.76969">
        <ele>165.96</ele>
        <time>2025-04-16T07:17:24Z</time>
      </trkpt>
      <trkpt lat="44.55326" lon="1.76967">
        <ele>168.37</ele>
        <time>2025-04-16T07:17:57Z</time>
      </trkpt>
      <trkpt lat="44.55329" lon="1.76971">
        <ele>168.37</ele>
        <time>2025-04-16T07:18:24Z</time>
      </trkpt>
      <trkpt lat="44.5534" lon="1.76968">
        <ele>169.33</ele>
        <time>2025-04-16T07:18:33Z</time>
      </trkpt>
      <trkpt lat="44.55345" lon="1.76958">
        <ele>170.29</ele>
        <time>2025-04-16T07:18:41Z</time>
      </trkpt>
      <trkpt lat="44.55359" lon="1.76833">
        <ele>175.58</ele>
        <time>2025-04-16T07:19:57Z</time>
      </trkpt>
      <trkpt lat="44.55356" lon="1.76817">
        <ele>176.54</ele>
        <time>2025-04-16T07:20:09Z</time>
      </trkpt>
      <trkpt lat="44.55345" lon="1.76793">
        <ele>178.94</ele>
        <time>2025-04-16T07:20:27Z</time>
      </trkpt>
      <trkpt lat="44.55343" lon="1.76778">
        <ele>180.38</ele>
        <time>2025-04-16T07:20:38Z</time>
      </trkpt>
      <trkpt lat="44.55333" lon="1.76753">
        <ele>182.79</ele>
        <time>2025-04-16T07:20:57Z</time>
      </trkpt>
      <trkpt lat="44.55325" lon="1.7674">
        <ele>183.27</ele>
        <time>2025-04-16T07:21:08Z</time>
      </trkpt>
      <trkpt lat="44.55305" lon="1.7668">
        <ele>187.11</ele>
        <time>2025-04-16T07:21:52Z</time>
      </trkpt>
      <trkpt lat="44.55304" lon="1.76663">
        <ele>189.04</ele>
        <time>2025-04-16T07:22:03Z</time>
      </trkpt>
      <trkpt lat="44.5531" lon="1.76632">
        <ele>193.36</ele>
        <time>2025-04-16T07:22:29Z</time>
      </trkpt>
      <trkpt lat="44.55308" lon="1.76569">
        <ele>202.49</ele>
        <time>2025-04-16T07:23:20Z</time>
      </trkpt>
      <trkpt lat="44.55303" lon="1.7655">
        <ele>203.94</ele>
        <time>2025-04-16T07:23:33Z</time>
      </trkpt>
      <trkpt lat="44.55294" lon="1.7646">
        <ele>212.59</ele>
        <time>2025-04-16T07:24:49Z</time>
      </trkpt>
      <trkpt lat="44.55291" lon="1.76444">
        <ele>214.8</ele>
        <time>2025-04-16T07:25:20Z</time>
      </trkpt>
      <trkpt lat="44.55288" lon="1.76401">
        <ele>217.4</ele>
        <time>2025-04-16T07:25:58Z</time>
      </trkpt>
      <trkpt lat="44.55278" lon="1.76334">
        <ele>223.16</ele>
        <time>2025-04-16T07:27:34Z</time>
      </trkpt>
      <trkpt lat="44.55265" lon="1.76274">
        <ele>228.93</ele>
        <time>2025-04-16T07:28:38Z</time>
      </trkpt>
      <trkpt lat="44.55243" lon="1.76193">
        <ele>236.62</ele>
        <time>2025-04-16T07:30:02Z</time>
      </trkpt>
      <trkpt lat="44.55238" lon="1.76182">
        <ele>238.06</ele>
        <time>2025-04-16T07:30:14Z</time>
      </trkpt>
      <trkpt lat="44.55233" lon="1.76157">
        <ele>241.43</ele>
        <time>2025-04-16T07:30:47Z</time>
      </trkpt>
      <trkpt lat="44.55242" lon="1.76162">
        <ele>242.39</ele>
        <time>2025-04-16T07:30:58Z</time>
      </trkpt>
      <trkpt lat="44.55311" lon="1.76252">
        <ele>251.52</ele>
        <time>2025-04-16T07:32:40Z</time>
      </trkpt>
      <trkpt lat="44.55326" lon="1.76303">
        <ele>249.12</ele>
        <time>2025-04-16T07:33:15Z</time>
      </trkpt>
      <trkpt lat="44.55345" lon="1.76354">
        <ele>247.2</ele>
        <time>2025-04-16T07:33:47Z</time>
      </trkpt>
      <trkpt lat="44.55381" lon="1.76424">
        <ele>250.08</ele>
        <time>2025-04-16T07:34:39Z</time>
      </trkpt>
      <trkpt lat="44.55398" lon="1.7644">
        <ele>251.04</ele>
        <time>2025-04-16T07:34:56Z</time>
      </trkpt>
      <trkpt lat="44.55413" lon="1.76447">
        <ele>252</ele>
        <time>2025-04-16T07:35:25Z</time>
      </trkpt>
      <trkpt lat="44.55437" lon="1.76451">
        <ele>252</ele>
        <time>2025-04-16T07:35:45Z</time>
      </trkpt>
      <trkpt lat="44.55509" lon="1.76456">
        <ele>248.64</ele>
        <time>2025-04-16T07:36:45Z</time>
      </trkpt>
      <trkpt lat="44.55522" lon="1.76463">
        <ele>247.68</ele>
        <time>2025-04-16T07:36:53Z</time>
      </trkpt>
      <trkpt lat="44.55536" lon="1.76486">
        <ele>247.2</ele>
        <time>2025-04-16T07:37:10Z</time>
      </trkpt>
      <trkpt lat="44.55554" lon="1.76537">
        <ele>244.31</ele>
        <time>2025-04-16T07:37:44Z</time>
      </trkpt>
      <trkpt lat="44.55562" lon="1.76582">
        <ele>241.91</ele>
        <time>2025-04-16T07:38:10Z</time>
      </trkpt>
      <trkpt lat="44.55574" lon="1.76608">
        <ele>240.95</ele>
        <time>2025-04-16T07:38:27Z</time>
      </trkpt>
      <trkpt lat="44.55582" lon="1.76618">
        <ele>240.47</ele>
        <time>2025-04-16T07:38:35Z</time>
      </trkpt>
      <trkpt lat="44.55599" lon="1.76631">
        <ele>239.99</ele>
        <time>2025-04-16T07:38:51Z</time>
      </trkpt>
      <trkpt lat="44.5562" lon="1.76642">
        <ele>240.47</ele>
        <time>2025-04-16T07:39:09Z</time>
      </trkpt>
      <trkpt lat="44.55642" lon="1.76645">
        <ele>241.91</ele>
        <time>2025-04-16T07:39:25Z</time>
      </trkpt>
      <trkpt lat="44.55662" lon="1.76651">
        <ele>243.35</ele>
        <time>2025-04-16T07:39:42Z</time>
      </trkpt>
      <trkpt lat="44.5569" lon="1.76668">
        <ele>244.79</ele>
        <time>2025-04-16T07:40:06Z</time>
      </trkpt>
      <trkpt lat="44.5571" lon="1.76675">
        <ele>245.75</ele>
        <time>2025-04-16T07:40:22Z</time>
      </trkpt>
      <trkpt lat="44.55714" lon="1.76618">
        <ele>252.96</ele>
        <time>2025-04-16T07:41:09Z</time>
      </trkpt>
      <trkpt lat="44.55724" lon="1.76608">
        <ele>254.41</ele>
        <time>2025-04-16T07:44:12Z</time>
      </trkpt>
      <trkpt lat="44.55738" lon="1.76578">
        <ele>257.29</ele>
        <time>2025-04-16T07:45:00Z</time>
      </trkpt>
      <trkpt lat="44.55742" lon="1.76559">
        <ele>259.69</ele>
        <time>2025-04-16T07:45:24Z</time>
      </trkpt>
      <trkpt lat="44.55756" lon="1.76527">
        <ele>263.06</ele>
        <time>2025-04-16T07:45:57Z</time>
      </trkpt>
      <trkpt lat="44.55778" lon="1.76506">
        <ele>264.5</ele>
        <time>2025-04-16T07:46:44Z</time>
      </trkpt>
      <trkpt lat="44.55788" lon="1.76503">
        <ele>265.46</ele>
        <time>2025-04-16T07:47:08Z</time>
      </trkpt>
      <trkpt lat="44.55802" lon="1.76508">
        <ele>265.46</ele>
        <time>2025-04-16T07:48:45Z</time>
      </trkpt>
      <trkpt lat="44.55808" lon="1.76485">
        <ele>266.42</ele>
        <time>2025-04-16T07:49:28Z</time>
      </trkpt>
      <trkpt lat="44.55809" lon="1.76472">
        <ele>266.9</ele>
        <time>2025-04-16T07:49:49Z</time>
      </trkpt>
      <trkpt lat="44.55801" lon="1.76443">
        <ele>269.79</ele>
        <time>2025-04-16T07:50:28Z</time>
      </trkpt>
      <trkpt lat="44.55786" lon="1.76437">
        <ele>269.79</ele>
        <time>2025-04-16T07:51:09Z</time>
      </trkpt>
      <trkpt lat="44.5579" lon="1.76403">
        <ele>271.23</ele>
        <time>2025-04-16T07:51:36Z</time>
      </trkpt>
      <trkpt lat="44.55804" lon="1.76354">
        <ele>274.11</ele>
        <time>2025-04-16T07:52:12Z</time>
      </trkpt>
      <trkpt lat="44.55818" lon="1.76329">
        <ele>275.07</ele>
        <time>2025-04-16T07:52:35Z</time>
      </trkpt>
      <trkpt lat="44.55826" lon="1.76319">
        <ele>275.56</ele>
        <time>2025-04-16T07:52:47Z</time>
      </trkpt>
      <trkpt lat="44.55853" lon="1.76244">
        <ele>277.96</ele>
        <time>2025-04-16T07:53:39Z</time>
      </trkpt>
      <trkpt lat="44.55877" lon="1.76192">
        <ele>278.92</ele>
        <time>2025-04-16T07:54:25Z</time>
      </trkpt>
      <trkpt lat="44.55876" lon="1.76178">
        <ele>279.4</ele>
        <time>2025-04-16T07:56:20Z</time>
      </trkpt>
      <trkpt lat="44.55875" lon="1.76178">
        <ele>280.36</ele>
        <time>2025-04-16T07:57:35Z</time>
      </trkpt>
      <trkpt lat="44.55867" lon="1.76172">
        <ele>280.36</ele>
        <time>2025-04-16T07:57:45Z</time>
      </trkpt>
      <trkpt lat="44.55858" lon="1.76171">
        <ele>280.36</ele>
        <time>2025-04-16T07:57:56Z</time>
      </trkpt>
      <trkpt lat="44.55849" lon="1.76146">
        <ele>279.4</ele>
        <time>2025-04-16T07:58:20Z</time>
      </trkpt>
      <trkpt lat="44.55846" lon="1.76131">
        <ele>279.88</ele>
        <time>2025-04-16T07:59:46Z</time>
      </trkpt>
      <trkpt lat="44.55833" lon="1.76109">
        <ele>278.44</ele>
        <time>2025-04-16T08:00:05Z</time>
      </trkpt>
      <trkpt lat="44.55822" lon="1.76082">
        <ele>284.2</ele>
      </trkpt>
      <trkpt lat="44.55811" lon="1.76093">
        <ele>283.8</ele>
      </trkpt>
      <trkpt lat="44.55795" lon="1.76126">
        <ele>283.2</ele>
      </trkpt>
      <trkpt lat="44.55805" lon="1.76099">
        <ele>283.5</ele>
      </trkpt>
      <trkpt lat="44.55819" lon="1.76077">
        <ele>283.9</ele>
      </trkpt>
      <trkpt lat="44.55822" lon="1.76058">
        <ele>284.2</ele>
        <time>2025-04-16T08:00:38Z</time>
      </trkpt>
      <trkpt lat="44.5583" lon="1.76083">
        <ele>277.96</ele>
        <time>2025-04-16T08:01:11Z</time>
      </trkpt>
      <trkpt lat="44.55838" lon="1.7609">
        <ele>277.96</ele>
        <time>2025-04-16T08:01:20Z</time>
      </trkpt>
      <trkpt lat="44.55857" lon="1.76121">
        <ele>287.2</ele>
        <time>2025-04-16T08:01:45Z</time>
      </trkpt>
      <trkpt lat="44.55877" lon="1.76119">
        <ele>281.32</ele>
        <time>2025-04-16T08:02:04Z</time>
      </trkpt>
      <trkpt lat="44.55896" lon="1.76114">
        <ele>282.77</ele>
        <time>2025-04-16T08:02:23Z</time>
      </trkpt>
      <trkpt lat="44.55907" lon="1.76112">
        <ele>283.25</ele>
        <time>2025-04-16T08:04:41Z</time>
      </trkpt>
      <trkpt lat="44.55952" lon="1.76079">
        <ele>283.73</ele>
        <time>2025-04-16T08:05:25Z</time>
      </trkpt>
      <trkpt lat="44.55961" lon="1.7607">
        <ele>283.73</ele>
        <time>2025-04-16T08:05:32Z</time>
      </trkpt>
      <trkpt lat="44.56001" lon="1.76004">
        <ele>282.28</ele>
        <time>2025-04-16T08:06:21Z</time>
      </trkpt>
      <trkpt lat="44.56009" lon="1.75996">
        <ele>282.28</ele>
        <time>2025-04-16T08:06:31Z</time>
      </trkpt>
      <trkpt lat="44.56018" lon="1.75993">
        <ele>281.32</ele>
        <time>2025-04-16T08:06:42Z</time>
      </trkpt>
      <trkpt lat="44.56022" lon="1.75979">
        <ele>280.84</ele>
        <time>2025-04-16T08:06:53Z</time>
      </trkpt>
      <trkpt lat="44.56039" lon="1.75952">
        <ele>278.44</ele>
        <time>2025-04-16T08:07:14Z</time>
      </trkpt>
      <trkpt lat="44.56123" lon="1.75866">
        <ele>270.27</ele>
        <time>2025-04-16T08:08:35Z</time>
      </trkpt>
      <trkpt lat="44.56133" lon="1.75852">
        <ele>269.79</ele>
        <time>2025-04-16T08:08:45Z</time>
      </trkpt>
      <trkpt lat="44.56142" lon="1.75835">
        <ele>268.83</ele>
        <time>2025-04-16T08:08:54Z</time>
      </trkpt>
      <trkpt lat="44.56156" lon="1.7581">
        <ele>272.7</ele>
        <time>2025-04-16T08:09:15Z</time>
      </trkpt>
      <trkpt lat="44.56171" lon="1.75784">
        <ele>266.42</ele>
        <time>2025-04-16T08:09:35Z</time>
      </trkpt>
      <trkpt lat="44.56178" lon="1.75773">
        <ele>270.7</ele>
        <time>2025-04-16T08:22:43Z</time>
      </trkpt>
      <trkpt lat="44.56193" lon="1.75779">
        <ele>268.35</ele>
        <time>2025-04-16T08:23:13Z</time>
      </trkpt>
      <trkpt lat="44.5619" lon="1.75779">
        <ele>267.86</ele>
        <time>2025-04-16T08:24:11Z</time>
      </trkpt>
      <trkpt lat="44.56194" lon="1.75771">
        <ele>267.38</ele>
        <time>2025-04-16T08:24:41Z</time>
      </trkpt>
      <trkpt lat="44.56206" lon="1.75764">
        <ele>268.83</ele>
        <time>2025-04-16T08:24:52Z</time>
      </trkpt>
      <trkpt lat="44.56217" lon="1.75768">
        <ele>270.27</ele>
        <time>2025-04-16T08:25:03Z</time>
      </trkpt>
      <trkpt lat="44.56228" lon="1.75765">
        <ele>271.23</ele>
        <time>2025-04-16T08:25:14Z</time>
      </trkpt>
      <trkpt lat="44.56288" lon="1.75861">
        <ele>286.61</ele>
        <time>2025-04-16T08:27:12Z</time>
      </trkpt>
      <trkpt lat="44.56296" lon="1.75869">
        <ele>288.53</ele>
        <time>2025-04-16T08:27:27Z</time>
      </trkpt>
      <trkpt lat="44.56303" lon="1.75862">
        <ele>288.53</ele>
        <time>2025-04-16T08:27:38Z</time>
      </trkpt>
      <trkpt lat="44.56313" lon="1.75856">
        <ele>289.01</ele>
        <time>2025-04-16T08:27:52Z</time>
      </trkpt>
      <trkpt lat="44.56327" lon="1.75861">
        <ele>292.38</ele>
        <time>2025-04-16T08:39:56Z</time>
      </trkpt>
      <trkpt lat="44.56332" lon="1.75873">
        <ele>293.34</ele>
        <time>2025-04-16T08:40:08Z</time>
      </trkpt>
      <trkpt lat="44.5634" lon="1.75882">
        <ele>294.3</ele>
        <time>2025-04-16T08:40:21Z</time>
      </trkpt>
      <trkpt lat="44.56349" lon="1.75883">
        <ele>295.26</ele>
        <time>2025-04-16T08:40:32Z</time>
      </trkpt>
      <trkpt lat="44.56356" lon="1.75893">
        <ele>296.22</ele>
        <time>2025-04-16T08:40:45Z</time>
      </trkpt>
      <trkpt lat="44.56357" lon="1.75907">
        <ele>296.7</ele>
        <time>2025-04-16T08:40:57Z</time>
      </trkpt>
      <trkpt lat="44.56364" lon="1.75913">
        <ele>297.18</ele>
        <time>2025-04-16T08:41:07Z</time>
      </trkpt>
      <trkpt lat="44.56404" lon="1.75894">
        <ele>298.15</ele>
        <time>2025-04-16T08:41:48Z</time>
      </trkpt>
      <trkpt lat="44.56464" lon="1.75861">
        <ele>299.11</ele>
        <time>2025-04-16T08:42:57Z</time>
      </trkpt>
      <trkpt lat="44.56485" lon="1.75859">
        <ele>299.59</ele>
        <time>2025-04-16T08:43:18Z</time>
      </trkpt>
      <trkpt lat="44.56506" lon="1.75867">
        <ele>300.55</ele>
        <time>2025-04-16T08:43:40Z</time>
      </trkpt>
      <trkpt lat="44.56516" lon="1.75875">
        <ele>306.1</ele>
        <time>2025-04-16T08:53:18Z</time>
      </trkpt>
      <trkpt lat="44.56531" lon="1.75933">
        <ele>301.03</ele>
        <time>2025-04-16T08:53:58Z</time>
      </trkpt>
      <trkpt lat="44.56535" lon="1.7596">
        <ele>300.07</ele>
        <time>2025-04-16T08:54:16Z</time>
      </trkpt>
      <trkpt lat="44.56535" lon="1.7603">
        <ele>294.78</ele>
        <time>2025-04-16T08:54:56Z</time>
      </trkpt>
      <trkpt lat="44.56538" lon="1.76044">
        <ele>292.38</ele>
        <time>2025-04-16T08:55:11Z</time>
      </trkpt>
      <trkpt lat="44.56559" lon="1.76044">
        <ele>291.42</ele>
        <time>2025-04-16T08:55:31Z</time>
      </trkpt>
      <trkpt lat="44.56594" lon="1.76058">
        <ele>289.49</ele>
        <time>2025-04-16T08:56:02Z</time>
      </trkpt>
      <trkpt lat="44.56604" lon="1.76065">
        <ele>289.01</ele>
        <time>2025-04-16T08:56:12Z</time>
      </trkpt>
      <trkpt lat="44.56611" lon="1.76075">
        <ele>288.05</ele>
        <time>2025-04-16T08:56:22Z</time>
      </trkpt>
      <trkpt lat="44.56621" lon="1.76084">
        <ele>286.61</ele>
        <time>2025-04-16T08:56:45Z</time>
      </trkpt>
      <trkpt lat="44.56664" lon="1.76102">
        <ele>286.13</ele>
        <time>2025-04-16T08:57:25Z</time>
      </trkpt>
      <trkpt lat="44.56683" lon="1.76117">
        <ele>285.65</ele>
        <time>2025-04-16T08:57:43Z</time>
      </trkpt>
      <trkpt lat="44.5669" lon="1.76128">
        <ele>285.17</ele>
        <time>2025-04-16T08:57:52Z</time>
      </trkpt>
      <trkpt lat="44.56726" lon="1.76161">
        <ele>285.17</ele>
        <time>2025-04-16T08:58:28Z</time>
      </trkpt>
      <trkpt lat="44.56746" lon="1.76171">
        <ele>285.17</ele>
        <time>2025-04-16T08:58:47Z</time>
      </trkpt>
      <trkpt lat="44.56772" lon="1.76197">
        <ele>282.28</ele>
        <time>2025-04-16T08:59:20Z</time>
      </trkpt>
      <trkpt lat="44.56783" lon="1.76202">
        <ele>281.32</ele>
        <time>2025-04-16T08:59:30Z</time>
      </trkpt>
      <trkpt lat="44.56788" lon="1.76213">
        <ele>279.88</ele>
        <time>2025-04-16T08:59:40Z</time>
      </trkpt>
      <trkpt lat="44.56791" lon="1.76234">
        <ele>277.96</ele>
        <time>2025-04-16T08:59:54Z</time>
      </trkpt>
      <trkpt lat="44.56786" lon="1.76245">
        <ele>277</ele>
        <time>2025-04-16T09:00:04Z</time>
      </trkpt>
      <trkpt lat="44.56775" lon="1.76252">
        <ele>276.04</ele>
        <time>2025-04-16T09:00:19Z</time>
      </trkpt>
      <trkpt lat="44.56757" lon="1.76272">
        <ele>277.2</ele>
        <time>2025-04-16T09:00:39Z</time>
      </trkpt>
      <trkpt lat="44.56748" lon="1.76282">
        <ele>276.6</ele>
        <time>2025-04-16T09:00:49Z</time>
      </trkpt>
      <trkpt lat="44.5672" lon="1.7631">
        <ele>274.11</ele>
        <time>2025-04-16T09:01:18Z</time>
      </trkpt>
      <trkpt lat="44.56689" lon="1.76351">
        <ele>273.15</ele>
        <time>2025-04-16T09:01:55Z</time>
      </trkpt>
      <trkpt lat="44.56715" lon="1.76312">
        <ele>272.67</ele>
        <time>2025-04-16T09:04:36Z</time>
      </trkpt>
      <trkpt lat="44.56733" lon="1.76291">
        <ele>273.63</ele>
        <time>2025-04-16T09:04:54Z</time>
      </trkpt>
      <trkpt lat="44.56766" lon="1.76262">
        <ele>275.07</ele>
        <time>2025-04-16T09:05:29Z</time>
      </trkpt>
      <trkpt lat="44.56784" lon="1.76242">
        <ele>276.04</ele>
        <time>2025-04-16T09:05:48Z</time>
      </trkpt>
      <trkpt lat="44.56797" lon="1.76224">
        <ele>278.44</ele>
        <time>2025-04-16T09:11:54Z</time>
      </trkpt>
      <trkpt lat="44.56827" lon="1.76185">
        <ele>283.25</ele>
        <time>2025-04-16T09:12:29Z</time>
      </trkpt>
      <trkpt lat="44.56848" lon="1.76149">
        <ele>287.57</ele>
        <time>2025-04-16T09:12:58Z</time>
      </trkpt>
      <trkpt lat="44.56857" lon="1.76141">
        <ele>289.01</ele>
        <time>2025-04-16T09:13:08Z</time>
      </trkpt>
      <trkpt lat="44.56863" lon="1.76131">
        <ele>290.46</ele>
        <time>2025-04-16T09:13:17Z</time>
      </trkpt>
      <trkpt lat="44.56872" lon="1.76103">
        <ele>293.34</ele>
        <time>2025-04-16T09:13:37Z</time>
      </trkpt>
      <trkpt lat="44.56882" lon="1.76056">
        <ele>296.7</ele>
        <time>2025-04-16T09:14:10Z</time>
      </trkpt>
      <trkpt lat="44.56914" lon="1.75978">
        <ele>299.59</ele>
        <time>2025-04-16T09:14:56Z</time>
      </trkpt>
      <trkpt lat="44.56927" lon="1.75955">
        <ele>300.07</ele>
        <time>2025-04-16T09:15:21Z</time>
      </trkpt>
      <trkpt lat="44.57014" lon="1.75972">
        <ele>300.07</ele>
        <time>2025-04-16T09:16:38Z</time>
      </trkpt>
      <trkpt lat="44.57057" lon="1.75983">
        <ele>300.07</ele>
        <time>2025-04-16T09:17:10Z</time>
      </trkpt>
      <trkpt lat="44.57101" lon="1.75987">
        <ele>300.55</ele>
        <time>2025-04-16T09:17:44Z</time>
      </trkpt>
      <trkpt lat="44.57111" lon="1.75993">
        <ele>301.51</ele>
        <time>2025-04-16T09:17:53Z</time>
      </trkpt>
      <trkpt lat="44.57129" lon="1.76012">
        <ele>301.51</ele>
        <time>2025-04-16T09:18:10Z</time>
      </trkpt>
      <trkpt lat="44.57151" lon="1.76022">
        <ele>301.99</ele>
        <time>2025-04-16T09:18:26Z</time>
      </trkpt>
      <trkpt lat="44.57251" lon="1.76086">
        <ele>302.47</ele>
        <time>2025-04-16T09:19:50Z</time>
      </trkpt>
      <trkpt lat="44.57272" lon="1.76097">
        <ele>301.99</ele>
        <time>2025-04-16T09:20:08Z</time>
      </trkpt>
      <trkpt lat="44.5728" lon="1.76106">
        <ele>301.99</ele>
        <time>2025-04-16T09:20:17Z</time>
      </trkpt>
      <trkpt lat="44.57395" lon="1.76174">
        <ele>304.88</ele>
        <time>2025-04-16T09:22:01Z</time>
      </trkpt>
      <trkpt lat="44.57409" lon="1.76196">
        <ele>306.32</ele>
        <time>2025-04-16T09:22:48Z</time>
      </trkpt>
      <trkpt lat="44.57511" lon="1.76404">
        <ele>304.88</ele>
        <time>2025-04-16T09:25:46Z</time>
      </trkpt>
      <trkpt lat="44.57515" lon="1.76417">
        <ele>303.43</ele>
        <time>2025-04-16T09:27:19Z</time>
      </trkpt>
      <trkpt lat="44.57534" lon="1.76455">
        <ele>298.15</ele>
        <time>2025-04-16T09:28:32Z</time>
      </trkpt>
      <trkpt lat="44.57542" lon="1.76466">
        <ele>296.7</ele>
        <time>2025-04-16T09:28:46Z</time>
      </trkpt>
      <trkpt lat="44.57546" lon="1.76479">
        <ele>295.74</ele>
        <time>2025-04-16T09:28:59Z</time>
      </trkpt>
      <trkpt lat="44.57573" lon="1.76527">
        <ele>292.38</ele>
        <time>2025-04-16T09:30:01Z</time>
      </trkpt>
      <trkpt lat="44.57578" lon="1.7654">
        <ele>291.9</ele>
        <time>2025-04-16T09:30:12Z</time>
      </trkpt>
      <trkpt lat="44.57575" lon="1.76553">
        <ele>291.9</ele>
        <time>2025-04-16T09:30:31Z</time>
      </trkpt>
      <trkpt lat="44.57567" lon="1.76559">
        <ele>292.86</ele>
        <time>2025-04-16T09:30:41Z</time>
      </trkpt>
      <trkpt lat="44.57553" lon="1.76578">
        <ele>293.34</ele>
        <time>2025-04-16T09:30:59Z</time>
      </trkpt>
      <trkpt lat="44.57541" lon="1.76601">
        <ele>293.34</ele>
        <time>2025-04-16T09:31:19Z</time>
      </trkpt>
      <trkpt lat="44.57542" lon="1.76617">
        <ele>293.34</ele>
        <time>2025-04-16T09:31:31Z</time>
      </trkpt>
      <trkpt lat="44.57538" lon="1.76632">
        <ele>293.82</ele>
        <time>2025-04-16T09:31:40Z</time>
      </trkpt>
      <trkpt lat="44.57523" lon="1.76653">
        <ele>294.3</ele>
        <time>2025-04-16T09:31:57Z</time>
      </trkpt>
      <trkpt lat="44.57514" lon="1.76662">
        <ele>294.3</ele>
        <time>2025-04-16T09:32:05Z</time>
      </trkpt>
      <trkpt lat="44.57499" lon="1.76682">
        <ele>294.78</ele>
        <time>2025-04-16T09:32:22Z</time>
      </trkpt>
      <trkpt lat="44.5749" lon="1.76691">
        <ele>294.78</ele>
        <time>2025-04-16T09:32:30Z</time>
      </trkpt>
      <trkpt lat="44.57484" lon="1.76702">
        <ele>295.26</ele>
        <time>2025-04-16T09:32:39Z</time>
      </trkpt>
      <trkpt lat="44.57453" lon="1.7674">
        <ele>295.74</ele>
        <time>2025-04-16T09:33:12Z</time>
      </trkpt>
      <trkpt lat="44.57439" lon="1.7676">
        <ele>295.74</ele>
        <time>2025-04-16T09:33:29Z</time>
      </trkpt>
      <trkpt lat="44.5743" lon="1.76783">
        <ele>296.7</ele>
        <time>2025-04-16T09:33:47Z</time>
      </trkpt>
      <trkpt lat="44.57425" lon="1.76836">
        <ele>297.18</ele>
        <time>2025-04-16T09:34:19Z</time>
      </trkpt>
      <trkpt lat="44.57425" lon="1.76867">
        <ele>297.18</ele>
        <time>2025-04-16T09:34:35Z</time>
      </trkpt>
      <trkpt lat="44.57431" lon="1.76956">
        <ele>297.18</ele>
        <time>2025-04-16T09:35:25Z</time>
      </trkpt>
      <trkpt lat="44.57434" lon="1.76971">
        <ele>297.18</ele>
        <time>2025-04-16T09:35:34Z</time>
      </trkpt>
      <trkpt lat="44.57451" lon="1.7701">
        <ele>297.18</ele>
        <time>2025-04-16T09:36:01Z</time>
      </trkpt>
      <trkpt lat="44.5747" lon="1.77092">
        <ele>298.63</ele>
        <time>2025-04-16T09:36:48Z</time>
      </trkpt>
      <trkpt lat="44.57473" lon="1.77121">
        <ele>299.11</ele>
        <time>2025-04-16T09:37:03Z</time>
      </trkpt>
      <trkpt lat="44.57472" lon="1.77148">
        <ele>299.11</ele>
        <time>2025-04-16T09:37:18Z</time>
      </trkpt>
      <trkpt lat="44.57457" lon="1.77237">
        <ele>301.03</ele>
        <time>2025-04-16T09:38:07Z</time>
      </trkpt>
      <trkpt lat="44.5744" lon="1.77285">
        <ele>301.99</ele>
        <time>2025-04-16T09:38:35Z</time>
      </trkpt>
      <trkpt lat="44.57418" lon="1.77337">
        <ele>302.47</ele>
        <time>2025-04-16T09:39:07Z</time>
      </trkpt>
      <trkpt lat="44.57399" lon="1.77389">
        <ele>302.95</ele>
        <time>2025-04-16T09:39:39Z</time>
      </trkpt>
      <trkpt lat="44.57386" lon="1.77414">
        <ele>302.95</ele>
        <time>2025-04-16T09:39:55Z</time>
      </trkpt>
      <trkpt lat="44.57356" lon="1.77459">
        <ele>303.43</ele>
        <time>2025-04-16T09:40:28Z</time>
      </trkpt>
      <trkpt lat="44.57317" lon="1.77479">
        <ele>301.99</ele>
        <time>2025-04-16T09:40:58Z</time>
      </trkpt>
      <trkpt lat="44.57307" lon="1.77487">
        <ele>301.51</ele>
        <time>2025-04-16T09:41:07Z</time>
      </trkpt>
      <trkpt lat="44.57288" lon="1.77497">
        <ele>301.03</ele>
        <time>2025-04-16T09:41:23Z</time>
      </trkpt>
      <trkpt lat="44.5728" lon="1.77505">
        <ele>300.55</ele>
        <time>2025-04-16T09:41:31Z</time>
      </trkpt>
      <trkpt lat="44.5727" lon="1.77511">
        <ele>300.07</ele>
        <time>2025-04-16T09:41:39Z</time>
      </trkpt>
      <trkpt lat="44.5723" lon="1.77549">
        <ele>299.11</ele>
        <time>2025-04-16T09:42:12Z</time>
      </trkpt>
      <trkpt lat="44.57219" lon="1.77556">
        <ele>299.11</ele>
        <time>2025-04-16T09:42:20Z</time>
      </trkpt>
      <trkpt lat="44.57186" lon="1.77567">
        <ele>296.7</ele>
        <time>2025-04-16T09:42:46Z</time>
      </trkpt>
      <trkpt lat="44.57152" lon="1.77569">
        <ele>293.82</ele>
        <time>2025-04-16T09:43:13Z</time>
      </trkpt>
      <trkpt lat="44.57128" lon="1.77578">
        <ele>292.86</ele>
        <time>2025-04-16T09:43:30Z</time>
      </trkpt>
      <trkpt lat="44.57086" lon="1.77584">
        <ele>290.94</ele>
        <time>2025-04-16T09:44:05Z</time>
      </trkpt>
      <trkpt lat="44.57074" lon="1.77583">
        <ele>290.46</ele>
        <time>2025-04-16T09:44:15Z</time>
      </trkpt>
      <trkpt lat="44.57019" lon="1.77594">
        <ele>290.46</ele>
        <time>2025-04-16T09:44:59Z</time>
      </trkpt>
      <trkpt lat="44.56996" lon="1.77596">
        <ele>291.9</ele>
        <time>2025-04-16T09:45:17Z</time>
      </trkpt>
      <trkpt lat="44.56945" lon="1.77592">
        <ele>292.38</ele>
        <time>2025-04-16T09:46:06Z</time>
      </trkpt>
      <trkpt lat="44.56919" lon="1.77594">
        <ele>292.86</ele>
        <time>2025-04-16T09:46:28Z</time>
      </trkpt>
      <trkpt lat="44.56868" lon="1.77594">
        <ele>293.34</ele>
        <time>2025-04-16T09:47:06Z</time>
      </trkpt>
      <trkpt lat="44.56844" lon="1.77598">
        <ele>293.34</ele>
        <time>2025-04-16T09:47:26Z</time>
      </trkpt>
      <trkpt lat="44.56797" lon="1.77598">
        <ele>293.34</ele>
        <time>2025-04-16T09:48:04Z</time>
      </trkpt>
      <trkpt lat="44.5677" lon="1.77595">
        <ele>291.9</ele>
        <time>2025-04-16T09:48:29Z</time>
      </trkpt>
      <trkpt lat="44.56745" lon="1.77597">
        <ele>290.94</ele>
        <time>2025-04-16T09:48:49Z</time>
      </trkpt>
      <trkpt lat="44.56709" lon="1.77606">
        <ele>289.49</ele>
        <time>2025-04-16T09:49:18Z</time>
      </trkpt>
      <trkpt lat="44.56688" lon="1.77618">
        <ele>287.09</ele>
        <time>2025-04-16T09:49:36Z</time>
      </trkpt>
      <trkpt lat="44.56675" lon="1.77622">
        <ele>287.09</ele>
        <time>2025-04-16T09:49:47Z</time>
      </trkpt>
      <trkpt lat="44.56661" lon="1.77621">
        <ele>286.61</ele>
        <time>2025-04-16T09:51:17Z</time>
      </trkpt>
      <trkpt lat="44.56665" lon="1.77626">
        <ele>286.61</ele>
        <time>2025-04-16T09:51:32Z</time>
      </trkpt>
      <trkpt lat="44.56655" lon="1.77626">
        <ele>285.65</ele>
        <time>2025-04-16T09:51:43Z</time>
      </trkpt>
      <trkpt lat="44.56643" lon="1.77629">
        <ele>284.69</ele>
        <time>2025-04-16T09:51:54Z</time>
      </trkpt>
      <trkpt lat="44.56618" lon="1.77644">
        <ele>281.8</ele>
        <time>2025-04-16T09:52:25Z</time>
      </trkpt>
      <trkpt lat="44.56604" lon="1.77647">
        <ele>280.84</ele>
        <time>2025-04-16T09:52:37Z</time>
      </trkpt>
      <trkpt lat="44.56586" lon="1.77662">
        <ele>277.96</ele>
        <time>2025-04-16T09:52:58Z</time>
      </trkpt>
      <trkpt lat="44.56541" lon="1.77686">
        <ele>272.67</ele>
        <time>2025-04-16T09:53:42Z</time>
      </trkpt>
      <trkpt lat="44.565" lon="1.77721">
        <ele>267.86</ele>
        <time>2025-04-16T09:54:24Z</time>
      </trkpt>
      <trkpt lat="44.56478" lon="1.77728">
        <ele>264.98</ele>
        <time>2025-04-16T09:54:42Z</time>
      </trkpt>
      <trkpt lat="44.56468" lon="1.7774">
        <ele>263.06</ele>
        <time>2025-04-16T09:54:54Z</time>
      </trkpt>
      <trkpt lat="44.56432" lon="1.77749">
        <ele>259.69</ele>
        <time>2025-04-16T09:55:23Z</time>
      </trkpt>
      <trkpt lat="44.5642" lon="1.77746">
        <ele>258.73</ele>
        <time>2025-04-16T09:55:33Z</time>
      </trkpt>
      <trkpt lat="44.56369" lon="1.77765">
        <ele>252</ele>
        <time>2025-04-16T09:56:23Z</time>
      </trkpt>
      <trkpt lat="44.56363" lon="1.77784">
        <ele>249.12</ele>
        <time>2025-04-16T09:57:14Z</time>
      </trkpt>
      <trkpt lat="44.56332" lon="1.77843">
        <ele>237.58</ele>
        <time>2025-04-16T09:58:53Z</time>
      </trkpt>
      <trkpt lat="44.56321" lon="1.77846">
        <ele>234.7</ele>
        <time>2025-04-16T09:59:25Z</time>
      </trkpt>
      <trkpt lat="44.56312" lon="1.77843">
        <ele>232.78</ele>
        <time>2025-04-16T10:00:28Z</time>
      </trkpt>
      <trkpt lat="44.56303" lon="1.77844">
        <ele>230.85</ele>
        <time>2025-04-16T10:00:44Z</time>
      </trkpt>
      <trkpt lat="44.56279" lon="1.77852">
        <ele>227.49</ele>
        <time>2025-04-16T10:01:22Z</time>
      </trkpt>
      <trkpt lat="44.56269" lon="1.77859">
        <ele>225.09</ele>
        <time>2025-04-16T10:01:44Z</time>
      </trkpt>
      <trkpt lat="44.56228" lon="1.77873">
        <ele>219.8</ele>
        <time>2025-04-16T10:02:46Z</time>
      </trkpt>
      <trkpt lat="44.56193" lon="1.7789">
        <ele>212.59</ele>
        <time>2025-04-16T10:03:35Z</time>
      </trkpt>
      <trkpt lat="44.56188" lon="1.77905">
        <ele>209.7</ele>
        <time>2025-04-16T10:04:13Z</time>
      </trkpt>
      <trkpt lat="44.56184" lon="1.77939">
        <ele>203.94</ele>
        <time>2025-04-16T10:04:59Z</time>
      </trkpt>
      <trkpt lat="44.56175" lon="1.7797">
        <ele>198.17</ele>
        <time>2025-04-16T10:05:49Z</time>
      </trkpt>
      <trkpt lat="44.56163" lon="1.77992">
        <ele>192.4</ele>
        <time>2025-04-16T10:06:25Z</time>
      </trkpt>
      <trkpt lat="44.56162" lon="1.78008">
        <ele>189.52</ele>
        <time>2025-04-16T10:06:39Z</time>
      </trkpt>
      <trkpt lat="44.56156" lon="1.78033">
        <ele>186.63</ele>
        <time>2025-04-16T10:07:02Z</time>
      </trkpt>
      <trkpt lat="44.56163" lon="1.78044">
        <ele>186.15</ele>
        <time>2025-04-16T10:07:12Z</time>
      </trkpt>
      <trkpt lat="44.56175" lon="1.7805">
        <ele>184.23</ele>
        <time>2025-04-16T10:07:33Z</time>
      </trkpt>
      <trkpt lat="44.56184" lon="1.78046">
        <ele>183.27</ele>
        <time>2025-04-16T10:08:01Z</time>
      </trkpt>
      <trkpt lat="44.562" lon="1.78032">
        <ele>181.35</ele>
        <time>2025-04-16T10:08:21Z</time>
      </trkpt>
      <trkpt lat="44.56231" lon="1.78013">
        <ele>177.5</ele>
        <time>2025-04-16T10:09:04Z</time>
      </trkpt>
      <trkpt lat="44.56245" lon="1.78018">
        <ele>176.06</ele>
        <time>2025-04-16T10:09:15Z</time>
      </trkpt>
      <trkpt lat="44.5627" lon="1.78041">
        <ele>174.62</ele>
        <time>2025-04-16T10:09:38Z</time>
      </trkpt>
      <trkpt lat="44.563" lon="1.78084">
        <ele>172.21</ele>
        <time>2025-04-16T10:10:11Z</time>
      </trkpt>
      <trkpt lat="44.5633" lon="1.78139">
        <ele>170.77</ele>
        <time>2025-04-16T10:10:45Z</time>
      </trkpt>
      <trkpt lat="44.56344" lon="1.7816">
        <ele>170.29</ele>
        <time>2025-04-16T10:11:02Z</time>
      </trkpt>
      <trkpt lat="44.56383" lon="1.7823">
        <ele>170.29</ele>
        <time>2025-04-16T10:11:52Z</time>
      </trkpt>
      <trkpt lat="44.56422" lon="1.78312">
        <ele>169.81</ele>
        <time>2025-04-16T10:12:45Z</time>
      </trkpt>
      <trkpt lat="44.56431" lon="1.78325">
        <ele>170.77</ele>
        <time>2025-04-16T10:12:54Z</time>
      </trkpt>
      <trkpt lat="44.56437" lon="1.78338">
        <ele>171.73</ele>
        <time>2025-04-16T10:13:04Z</time>
      </trkpt>
      <trkpt lat="44.56446" lon="1.78351">
        <ele>172.21</ele>
        <time>2025-04-16T10:13:14Z</time>
      </trkpt>
      <trkpt lat="44.56456" lon="1.78361">
        <ele>172.21</ele>
        <time>2025-04-16T10:13:26Z</time>
      </trkpt>
      <trkpt lat="44.56469" lon="1.78385">
        <ele>173.66</ele>
        <time>2025-04-16T10:13:44Z</time>
      </trkpt>
      <trkpt lat="44.56472" lon="1.78399">
        <ele>174.62</ele>
        <time>2025-04-16T10:13:53Z</time>
      </trkpt>
      <trkpt lat="44.56471" lon="1.78432">
        <ele>175.58</ele>
        <time>2025-04-16T10:14:19Z</time>
      </trkpt>
      <trkpt lat="44.56473" lon="1.78447">
        <ele>176.54</ele>
        <time>2025-04-16T10:14:30Z</time>
      </trkpt>
      <trkpt lat="44.56494" lon="1.78474">
        <ele>179.42</ele>
        <time>2025-04-16T10:16:11Z</time>
      </trkpt>
      <trkpt lat="44.56517" lon="1.78485">
        <ele>182.79</ele>
        <time>2025-04-16T10:19:05Z</time>
      </trkpt>
      <trkpt lat="44.56531" lon="1.78494">
        <ele>184.71</ele>
        <time>2025-04-16T10:20:44Z</time>
      </trkpt>
      <trkpt lat="44.56533" lon="1.78499">
        <ele>185.67</ele>
        <time>2025-04-16T10:23:56Z</time>
      </trkpt>
      <trkpt lat="44.56545" lon="1.78506">
        <ele>186.15</ele>
        <time>2025-04-16T10:24:09Z</time>
      </trkpt>
      <trkpt lat="44.56564" lon="1.78527">
        <ele>188.56</ele>
        <time>2025-04-16T10:24:30Z</time>
      </trkpt>
      <trkpt lat="44.56579" lon="1.78549">
        <ele>190.48</ele>
        <time>2025-04-16T10:24:49Z</time>
      </trkpt>
      <trkpt lat="44.56588" lon="1.78556">
        <ele>191.92</ele>
        <time>2025-04-16T10:24:59Z</time>
      </trkpt>
      <trkpt lat="44.56602" lon="1.78559">
        <ele>192.88</ele>
        <time>2025-04-16T10:25:10Z</time>
      </trkpt>
      <trkpt lat="44.56612" lon="1.78559">
        <ele>194.32</ele>
        <time>2025-04-16T10:25:20Z</time>
      </trkpt>
      <trkpt lat="44.56636" lon="1.78553">
        <ele>196.73</ele>
        <time>2025-04-16T10:25:41Z</time>
      </trkpt>
      <trkpt lat="44.56658" lon="1.78543">
        <ele>197.69</ele>
        <time>2025-04-16T10:26:00Z</time>
      </trkpt>
      <trkpt lat="44.56673" lon="1.78524">
        <ele>198.65</ele>
        <time>2025-04-16T10:26:18Z</time>
      </trkpt>
      <trkpt lat="44.56688" lon="1.78513">
        <ele>200.57</ele>
        <time>2025-04-16T10:26:36Z</time>
      </trkpt>
      <trkpt lat="44.56705" lon="1.78512">
        <ele>200.57</ele>
        <time>2025-04-16T10:26:50Z</time>
      </trkpt>
      <trkpt lat="44.56722" lon="1.78516">
        <ele>198.65</ele>
        <time>2025-04-16T10:27:03Z</time>
      </trkpt>
      <trkpt lat="44.56733" lon="1.78527">
        <ele>197.69</ele>
        <time>2025-04-16T10:27:12Z</time>
      </trkpt>
      <trkpt lat="44.5674" lon="1.78541">
        <ele>196.25</ele>
        <time>2025-04-16T10:27:23Z</time>
      </trkpt>
      <trkpt lat="44.56752" lon="1.78555">
        <ele>194.8</ele>
        <time>2025-04-16T10:27:34Z</time>
      </trkpt>
      <trkpt lat="44.56763" lon="1.78562">
        <ele>192.88</ele>
        <time>2025-04-16T10:27:43Z</time>
      </trkpt>
      <trkpt lat="44.56784" lon="1.78564">
        <ele>191.44</ele>
        <time>2025-04-16T10:28:01Z</time>
      </trkpt>
      <trkpt lat="44.56795" lon="1.78562">
        <ele>190.96</ele>
        <time>2025-04-16T10:28:10Z</time>
      </trkpt>
      <trkpt lat="44.56814" lon="1.78568">
        <ele>215.1</ele>
        <time>2025-04-16T10:28:27Z</time>
      </trkpt>
      <trkpt lat="44.56855" lon="1.78588">
        <ele>188.08</ele>
        <time>2025-04-16T10:28:56Z</time>
      </trkpt>
      <trkpt lat="44.56884" lon="1.78608">
        <ele>185.67</ele>
        <time>2025-04-16T10:29:21Z</time>
      </trkpt>
      <trkpt lat="44.56891" lon="1.78619">
        <ele>184.71</ele>
        <time>2025-04-16T10:29:29Z</time>
      </trkpt>
      <trkpt lat="44.56911" lon="1.78627">
        <ele>182.79</ele>
        <time>2025-04-16T10:29:45Z</time>
      </trkpt>
      <trkpt lat="44.56958" lon="1.78623">
        <ele>181.83</ele>
        <time>2025-04-16T10:30:22Z</time>
      </trkpt>
      <trkpt lat="44.56967" lon="1.78629">
        <ele>181.83</ele>
        <time>2025-04-16T10:30:30Z</time>
      </trkpt>
      <trkpt lat="44.56974" lon="1.78641">
        <ele>181.83</ele>
        <time>2025-04-16T10:30:38Z</time>
      </trkpt>
      <trkpt lat="44.56975" lon="1.78669">
        <ele>183.75</ele>
        <time>2025-04-16T10:30:55Z</time>
      </trkpt>
      <trkpt lat="44.56986" lon="1.78744">
        <ele>188.56</ele>
        <time>2025-04-16T10:31:44Z</time>
      </trkpt>
      <trkpt lat="44.56994" lon="1.78758">
        <ele>188.56</ele>
        <time>2025-04-16T10:31:54Z</time>
      </trkpt>
      <trkpt lat="44.5699" lon="1.78772">
        <ele>188.8</ele>
        <time>2025-04-16T10:32:03Z</time>
      </trkpt>
      <trkpt lat="44.57001" lon="1.78778">
        <ele>189.04</ele>
        <time>2025-04-16T10:32:26Z</time>
      </trkpt>
      <trkpt lat="44.57017" lon="1.78797">
        <ele>189.04</ele>
        <time>2025-04-16T10:32:44Z</time>
      </trkpt>
      <trkpt lat="44.57028" lon="1.7882">
        <ele>187.11</ele>
        <time>2025-04-16T10:33:00Z</time>
      </trkpt>
      <trkpt lat="44.57032" lon="1.78835">
        <ele>185.67</ele>
        <time>2025-04-16T10:33:09Z</time>
      </trkpt>
      <trkpt lat="44.57032" lon="1.78851">
        <ele>184.23</ele>
        <time>2025-04-16T10:33:17Z</time>
      </trkpt>
      <trkpt lat="44.5702" lon="1.78907">
        <ele>179.9</ele>
        <time>2025-04-16T10:33:51Z</time>
      </trkpt>
      <trkpt lat="44.57017" lon="1.78939">
        <ele>177.02</ele>
        <time>2025-04-16T10:34:21Z</time>
      </trkpt>
      <trkpt lat="44.57019" lon="1.78953">
        <ele>176.06</ele>
        <time>2025-04-16T10:34:32Z</time>
      </trkpt>
      <trkpt lat="44.57009" lon="1.78962">
        <ele>175.1</ele>
        <time>2025-04-16T10:35:10Z</time>
      </trkpt>
      <trkpt lat="44.56991" lon="1.79038">
        <ele>168.85</ele>
        <time>2025-04-16T10:36:00Z</time>
      </trkpt>
      <trkpt lat="44.56986" lon="1.79067">
        <ele>170.29</ele>
        <time>2025-04-16T10:36:17Z</time>
      </trkpt>
      <trkpt lat="44.56984" lon="1.79084">
        <ele>174.1</ele>
        <time>2025-04-16T10:36:27Z</time>
      </trkpt>
      <trkpt lat="44.56966" lon="1.79084">
        <ele>169.3</ele>
        <time>2025-04-16T10:36:49Z</time>
      </trkpt>
      <trkpt lat="44.5696" lon="1.79114">
        <ele>165.96</ele>
        <time>2025-04-16T10:37:05Z</time>
      </trkpt>
      <trkpt lat="44.56948" lon="1.79137">
        <ele>164.04</ele>
        <time>2025-04-16T10:37:21Z</time>
      </trkpt>
      <trkpt lat="44.56944" lon="1.79151">
        <ele>163.56</ele>
        <time>2025-04-16T10:37:28Z</time>
      </trkpt>
      <trkpt lat="44.56938" lon="1.7916">
        <ele>162.6</ele>
        <time>2025-04-16T10:37:33Z</time>
      </trkpt>
      <trkpt lat="44.56922" lon="1.79169">
        <ele>159.72</ele>
        <time>2025-04-16T10:37:51Z</time>
      </trkpt>
      <trkpt lat="44.56915" lon="1.79171">
        <ele>159.9</ele>
        <time>2025-04-16T10:38:00Z</time>
      </trkpt>
      <trkpt lat="44.56911" lon="1.79189">
        <ele>160.4</ele>
        <time>2025-04-16T10:38:08Z</time>
      </trkpt>
      <trkpt lat="44.56913" lon="1.79212">
        <ele>158.75</ele>
        <time>2025-04-16T10:38:25Z</time>
      </trkpt>
      <trkpt lat="44.56917" lon="1.79238">
        <ele>158.75</ele>
        <time>2025-04-16T10:38:56Z</time>
      </trkpt>
      <trkpt lat="44.56917" lon="1.79254">
        <ele>158.75</ele>
        <time>2025-04-16T10:39:06Z</time>
      </trkpt>
      <trkpt lat="44.56921" lon="1.79267">
        <ele>158.75</ele>
        <time>2025-04-16T10:39:11Z</time>
      </trkpt>
      <trkpt lat="44.56943" lon="1.7931">
        <ele>158.27</ele>
        <time>2025-04-16T10:39:41Z</time>
      </trkpt>
      <trkpt lat="44.5695" lon="1.79332">
        <ele>158.27</ele>
        <time>2025-04-16T10:39:57Z</time>
      </trkpt>
      <trkpt lat="44.5697" lon="1.79361">
        <ele>158.27</ele>
        <time>2025-04-16T10:40:22Z</time>
      </trkpt>
      <trkpt lat="44.56974" lon="1.79375">
        <ele>158.27</ele>
        <time>2025-04-16T10:40:30Z</time>
      </trkpt>
      <trkpt lat="44.56971" lon="1.79388">
        <ele>157.79</ele>
        <time>2025-04-16T10:40:38Z</time>
      </trkpt>
      <trkpt lat="44.56916" lon="1.79472">
        <ele>155</ele>
      </trkpt>
      <trkpt lat="44.56936" lon="1.79448">
        <ele>153.7</ele>
      </trkpt>
      <trkpt lat="44.56947" lon="1.79441">
        <ele>153.6</ele>
      </trkpt>
      <trkpt lat="44.5696" lon="1.79444">
        <ele>151.06</ele>
        <time>2025-04-16T10:42:11Z</time>
      </trkpt>
      <trkpt lat="44.56964" lon="1.79453">
        <ele>151.06</ele>
        <time>2025-04-16T10:42:21Z</time>
      </trkpt>
      <trkpt lat="44.5697" lon="1.79455">
        <ele>151.06</ele>
        <time>2025-04-16T10:42:30Z</time>
      </trkpt>
      <trkpt lat="44.56971" lon="1.79452">
        <ele>156.35</ele>
        <time>2025-04-16T11:18:15Z</time>
      </trkpt>
      <trkpt lat="44.56963" lon="1.79457">
        <ele>156.35</ele>
        <time>2025-04-16T11:18:24Z</time>
      </trkpt>
      <trkpt lat="44.56946" lon="1.79443">
        <ele>156.35</ele>
        <time>2025-04-16T11:18:40Z</time>
      </trkpt>
      <trkpt lat="44.56936" lon="1.7945">
        <ele>153.7</ele>
        <time>2025-04-16T11:18:48Z</time>
      </trkpt>
      <trkpt lat="44.56931" lon="1.79458">
        <ele>157.31</ele>
        <time>2025-04-16T11:18:57Z</time>
      </trkpt>
      <trkpt lat="44.56916" lon="1.79477">
        <ele>159.24</ele>
        <time>2025-04-16T11:19:34Z</time>
      </trkpt>
      <trkpt lat="44.56888" lon="1.79522">
        <ele>158.75</ele>
        <time>2025-04-16T11:20:05Z</time>
      </trkpt>
      <trkpt lat="44.56865" lon="1.79564">
        <ele>159.24</ele>
        <time>2025-04-16T11:20:35Z</time>
      </trkpt>
      <trkpt lat="44.56825" lon="1.7962">
        <ele>161.64</ele>
        <time>2025-04-16T11:21:22Z</time>
      </trkpt>
      <trkpt lat="44.56816" lon="1.79626">
        <ele>162.12</ele>
        <time>2025-04-16T11:21:30Z</time>
      </trkpt>
      <trkpt lat="44.56806" lon="1.79627">
        <ele>163.08</ele>
        <time>2025-04-16T11:21:38Z</time>
      </trkpt>
      <trkpt lat="44.56796" lon="1.79625">
        <ele>163.56</ele>
        <time>2025-04-16T11:21:46Z</time>
      </trkpt>
      <trkpt lat="44.56766" lon="1.79609">
        <ele>165</ele>
        <time>2025-04-16T11:22:10Z</time>
      </trkpt>
      <trkpt lat="44.56748" lon="1.79603">
        <ele>166.45</ele>
        <time>2025-04-16T11:22:24Z</time>
      </trkpt>
      <trkpt lat="44.56732" lon="1.79586">
        <ele>167.41</ele>
        <time>2025-04-16T11:22:44Z</time>
      </trkpt>
      <trkpt lat="44.56702" lon="1.79542">
        <ele>168.85</ele>
        <time>2025-04-16T11:23:18Z</time>
      </trkpt>
      <trkpt lat="44.56691" lon="1.79512">
        <ele>170.29</ele>
        <time>2025-04-16T11:23:37Z</time>
      </trkpt>
      <trkpt lat="44.56676" lon="1.79492">
        <ele>170.77</ele>
        <time>2025-04-16T11:23:53Z</time>
      </trkpt>
      <trkpt lat="44.56668" lon="1.79496">
        <ele>171.73</ele>
        <time>2025-04-16T11:24:03Z</time>
      </trkpt>
      <trkpt lat="44.56668" lon="1.79511">
        <ele>172.69</ele>
        <time>2025-04-16T11:24:13Z</time>
      </trkpt>
      <trkpt lat="44.56679" lon="1.79538">
        <ele>173.66</ele>
        <time>2025-04-16T11:24:31Z</time>
      </trkpt>
      <trkpt lat="44.56694" lon="1.79626">
        <ele>176.54</ele>
        <time>2025-04-16T11:25:21Z</time>
      </trkpt>
      <trkpt lat="44.56691" lon="1.79685">
        <ele>178.46</ele>
        <time>2025-04-16T11:25:52Z</time>
      </trkpt>
      <trkpt lat="44.56684" lon="1.79713">
        <ele>179.42</ele>
        <time>2025-04-16T11:26:09Z</time>
      </trkpt>
      <trkpt lat="44.56669" lon="1.79738">
        <ele>181.35</ele>
        <time>2025-04-16T11:26:26Z</time>
      </trkpt>
      <trkpt lat="44.56651" lon="1.79756">
        <ele>182.79</ele>
        <time>2025-04-16T11:26:44Z</time>
      </trkpt>
      <trkpt lat="44.56631" lon="1.7977">
        <ele>184.23</ele>
        <time>2025-04-16T11:27:02Z</time>
      </trkpt>
      <trkpt lat="44.56614" lon="1.79786">
        <ele>185.19</ele>
        <time>2025-04-16T11:27:18Z</time>
      </trkpt>
      <trkpt lat="44.56596" lon="1.79797">
        <ele>187.59</ele>
        <time>2025-04-16T11:27:36Z</time>
      </trkpt>
      <trkpt lat="44.56584" lon="1.79798">
        <ele>188.08</ele>
        <time>2025-04-16T11:27:45Z</time>
      </trkpt>
      <trkpt lat="44.56577" lon="1.79788">
        <ele>189.04</ele>
        <time>2025-04-16T11:27:55Z</time>
      </trkpt>
      <trkpt lat="44.56579" lon="1.79774">
        <ele>190</ele>
        <time>2025-04-16T11:28:04Z</time>
      </trkpt>
      <trkpt lat="44.56593" lon="1.79758">
        <ele>190.96</ele>
        <time>2025-04-16T11:28:21Z</time>
      </trkpt>
      <trkpt lat="44.56603" lon="1.79733">
        <ele>191.92</ele>
        <time>2025-04-16T11:28:39Z</time>
      </trkpt>
      <trkpt lat="44.56603" lon="1.79722">
        <ele>191.92</ele>
        <time>2025-04-16T11:29:54Z</time>
      </trkpt>
      <trkpt lat="44.56597" lon="1.79694">
        <ele>193.84</ele>
        <time>2025-04-16T11:30:10Z</time>
      </trkpt>
      <trkpt lat="44.5659" lon="1.79631">
        <ele>197.21</ele>
        <time>2025-04-16T11:30:46Z</time>
      </trkpt>
      <trkpt lat="44.5659" lon="1.79616">
        <ele>198.17</ele>
        <time>2025-04-16T11:30:55Z</time>
      </trkpt>
      <trkpt lat="44.56574" lon="1.79523">
        <ele>203.46</ele>
        <time>2025-04-16T11:31:57Z</time>
      </trkpt>
      <trkpt lat="44.56579" lon="1.79464">
        <ele>205.86</ele>
        <time>2025-04-16T11:32:58Z</time>
      </trkpt>
      <trkpt lat="44.56578" lon="1.79451">
        <ele>206.82</ele>
        <time>2025-04-16T11:33:08Z</time>
      </trkpt>
      <trkpt lat="44.56569" lon="1.79448">
        <ele>207.78</ele>
        <time>2025-04-16T11:33:18Z</time>
      </trkpt>
      <trkpt lat="44.56563" lon="1.7946">
        <ele>208.74</ele>
        <time>2025-04-16T11:33:27Z</time>
      </trkpt>
      <trkpt lat="44.56566" lon="1.79487">
        <ele>209.22</ele>
        <time>2025-04-16T11:33:44Z</time>
      </trkpt>
      <trkpt lat="44.56564" lon="1.79543">
        <ele>210.67</ele>
        <time>2025-04-16T11:34:17Z</time>
      </trkpt>
      <trkpt lat="44.56556" lon="1.79597">
        <ele>212.11</ele>
        <time>2025-04-16T11:34:49Z</time>
      </trkpt>
      <trkpt lat="44.56542" lon="1.7965">
        <ele>214.51</ele>
        <time>2025-04-16T11:35:21Z</time>
      </trkpt>
      <trkpt lat="44.56524" lon="1.79702">
        <ele>215.95</ele>
        <time>2025-04-16T11:35:53Z</time>
      </trkpt>
      <trkpt lat="44.56508" lon="1.79737">
        <ele>216.43</ele>
        <time>2025-04-16T11:36:28Z</time>
      </trkpt>
      <trkpt lat="44.56493" lon="1.7975">
        <ele>217.4</ele>
        <time>2025-04-16T11:36:43Z</time>
      </trkpt>
      <trkpt lat="44.56485" lon="1.79754">
        <ele>217.88</ele>
        <time>2025-04-16T11:36:51Z</time>
      </trkpt>
      <trkpt lat="44.56474" lon="1.79753">
        <ele>218.36</ele>
        <time>2025-04-16T11:37:00Z</time>
      </trkpt>
      <trkpt lat="44.56466" lon="1.7975">
        <ele>217.88</ele>
        <time>2025-04-16T11:37:08Z</time>
      </trkpt>
      <trkpt lat="44.56457" lon="1.79751">
        <ele>216.43</ele>
        <time>2025-04-16T11:37:16Z</time>
      </trkpt>
      <trkpt lat="44.56437" lon="1.79747">
        <ele>214.99</ele>
        <time>2025-04-16T11:37:32Z</time>
      </trkpt>
      <trkpt lat="44.56419" lon="1.79741">
        <ele>213.55</ele>
        <time>2025-04-16T11:37:48Z</time>
      </trkpt>
      <trkpt lat="44.56399" lon="1.79738">
        <ele>212.59</ele>
        <time>2025-04-16T11:38:33Z</time>
      </trkpt>
      <trkpt lat="44.56381" lon="1.79738">
        <ele>212.59</ele>
        <time>2025-04-16T11:38:52Z</time>
      </trkpt>
      <trkpt lat="44.5636" lon="1.79734">
        <ele>212.59</ele>
        <time>2025-04-16T11:39:18Z</time>
      </trkpt>
      <trkpt lat="44.5635" lon="1.79728">
        <ele>212.59</ele>
        <time>2025-04-16T11:39:28Z</time>
      </trkpt>
      <trkpt lat="44.56341" lon="1.79726">
        <ele>212.59</ele>
        <time>2025-04-16T11:39:34Z</time>
      </trkpt>
      <trkpt lat="44.56319" lon="1.7973">
        <ele>214.03</ele>
        <time>2025-04-16T11:39:54Z</time>
      </trkpt>
      <trkpt lat="44.563" lon="1.79737">
        <ele>214.03</ele>
        <time>2025-04-16T11:40:07Z</time>
      </trkpt>
      <trkpt lat="44.56279" lon="1.79738">
        <ele>214.51</ele>
        <time>2025-04-16T11:40:23Z</time>
      </trkpt>
      <trkpt lat="44.56261" lon="1.79744">
        <ele>214.99</ele>
        <time>2025-04-16T11:40:37Z</time>
      </trkpt>
      <trkpt lat="44.56223" lon="1.79761">
        <ele>215.47</ele>
        <time>2025-04-16T11:41:06Z</time>
      </trkpt>
      <trkpt lat="44.56203" lon="1.79763">
        <ele>215.95</ele>
        <time>2025-04-16T11:41:22Z</time>
      </trkpt>
      <trkpt lat="44.56184" lon="1.79773">
        <ele>216.43</ele>
        <time>2025-04-16T11:41:36Z</time>
      </trkpt>
      <trkpt lat="44.56159" lon="1.79795">
        <ele>216.43</ele>
        <time>2025-04-16T11:41:59Z</time>
      </trkpt>
      <trkpt lat="44.56142" lon="1.79807">
        <ele>216.43</ele>
        <time>2025-04-16T11:42:15Z</time>
      </trkpt>
      <trkpt lat="44.56124" lon="1.79824">
        <ele>216.43</ele>
        <time>2025-04-16T11:42:31Z</time>
      </trkpt>
      <trkpt lat="44.5611" lon="1.79843">
        <ele>216.43</ele>
        <time>2025-04-16T11:42:46Z</time>
      </trkpt>
      <trkpt lat="44.56057" lon="1.79934">
        <ele>220.28</ele>
        <time>2025-04-16T11:43:51Z</time>
      </trkpt>
      <trkpt lat="44.56024" lon="1.80008">
        <ele>224.61</ele>
        <time>2025-04-16T11:44:40Z</time>
      </trkpt>
      <trkpt lat="44.56008" lon="1.80028">
        <ele>226.53</ele>
        <time>2025-04-16T11:44:56Z</time>
      </trkpt>
      <trkpt lat="44.55975" lon="1.80062">
        <ele>229.41</ele>
        <time>2025-04-16T11:45:28Z</time>
      </trkpt>
      <trkpt lat="44.55968" lon="1.80075">
        <ele>230.37</ele>
        <time>2025-04-16T11:45:37Z</time>
      </trkpt>
      <trkpt lat="44.55957" lon="1.80116">
        <ele>231.81</ele>
        <time>2025-04-16T11:46:01Z</time>
      </trkpt>
      <trkpt lat="44.55938" lon="1.80151">
        <ele>234.7</ele>
        <time>2025-04-16T11:46:47Z</time>
      </trkpt>
      <trkpt lat="44.55888" lon="1.80203">
        <ele>240.47</ele>
        <time>2025-04-16T11:47:38Z</time>
      </trkpt>
      <trkpt lat="44.55871" lon="1.80215">
        <ele>241.91</ele>
        <time>2025-04-16T11:47:54Z</time>
      </trkpt>
      <trkpt lat="44.55845" lon="1.80238">
        <ele>244.79</ele>
        <time>2025-04-16T11:48:21Z</time>
      </trkpt>
      <trkpt lat="44.55825" lon="1.80244">
        <ele>246.23</ele>
        <time>2025-04-16T11:48:38Z</time>
      </trkpt>
      <trkpt lat="44.55804" lon="1.80242">
        <ele>247.2</ele>
        <time>2025-04-16T11:48:56Z</time>
      </trkpt>
      <trkpt lat="44.55793" lon="1.80238">
        <ele>247.68</ele>
        <time>2025-04-16T11:49:05Z</time>
      </trkpt>
      <trkpt lat="44.55782" lon="1.8024">
        <ele>247.68</ele>
        <time>2025-04-16T11:49:14Z</time>
      </trkpt>
      <trkpt lat="44.55771" lon="1.80239">
        <ele>248.16</ele>
        <time>2025-04-16T11:49:23Z</time>
      </trkpt>
      <trkpt lat="44.5575" lon="1.80232">
        <ele>248.16</ele>
        <time>2025-04-16T11:49:49Z</time>
      </trkpt>
      <trkpt lat="44.55691" lon="1.80198">
        <ele>249.12</ele>
        <time>2025-04-16T11:50:36Z</time>
      </trkpt>
      <trkpt lat="44.5567" lon="1.80191">
        <ele>249.6</ele>
        <time>2025-04-16T11:50:52Z</time>
      </trkpt>
      <trkpt lat="44.55517" lon="1.80151">
        <ele>258.25</ele>
        <time>2025-04-16T11:53:07Z</time>
      </trkpt>
      <trkpt lat="44.55497" lon="1.80139">
        <ele>258.73</ele>
        <time>2025-04-16T11:53:23Z</time>
      </trkpt>
      <trkpt lat="44.55466" lon="1.80128">
        <ele>259.69</ele>
        <time>2025-04-16T11:53:48Z</time>
      </trkpt>
      <trkpt lat="44.55456" lon="1.80121">
        <ele>260.17</ele>
        <time>2025-04-16T11:53:57Z</time>
      </trkpt>
      <trkpt lat="44.55392" lon="1.80132">
        <ele>263.06</ele>
        <time>2025-04-16T11:54:44Z</time>
      </trkpt>
      <trkpt lat="44.55319" lon="1.80132">
        <ele>265.94</ele>
        <time>2025-04-16T11:55:36Z</time>
      </trkpt>
      <trkpt lat="44.55235" lon="1.80147">
        <ele>271.23</ele>
        <time>2025-04-16T11:56:43Z</time>
      </trkpt>
      <trkpt lat="44.55225" lon="1.80152">
        <ele>272.19</ele>
        <time>2025-04-16T11:56:59Z</time>
      </trkpt>
      <trkpt lat="44.55209" lon="1.80175">
        <ele>273.63</ele>
        <time>2025-04-16T11:57:21Z</time>
      </trkpt>
      <trkpt lat="44.55203" lon="1.80187">
        <ele>274.11</ele>
        <time>2025-04-16T11:57:30Z</time>
      </trkpt>
      <trkpt lat="44.55194" lon="1.80234">
        <ele>276.52</ele>
        <time>2025-04-16T11:58:01Z</time>
      </trkpt>
      <trkpt lat="44.55183" lon="1.80244">
        <ele>277.48</ele>
        <time>2025-04-16T11:58:14Z</time>
      </trkpt>
      <trkpt lat="44.55172" lon="1.80245">
        <ele>277.96</ele>
        <time>2025-04-16T11:58:29Z</time>
      </trkpt>
      <trkpt lat="44.55162" lon="1.8025">
        <ele>279.4</ele>
        <time>2025-04-16T11:58:42Z</time>
      </trkpt>
      <trkpt lat="44.55152" lon="1.80263">
        <ele>280.84</ele>
        <time>2025-04-16T12:00:22Z</time>
      </trkpt>
      <trkpt lat="44.55154" lon="1.80252">
        <ele>280.84</ele>
        <time>2025-04-16T12:00:41Z</time>
      </trkpt>
      <trkpt lat="44.55173" lon="1.80241">
        <ele>279.4</ele>
        <time>2025-04-16T12:01:04Z</time>
      </trkpt>
      <trkpt lat="44.55178" lon="1.80239">
        <ele>281.32</ele>
        <time>2025-04-16T12:06:56Z</time>
      </trkpt>
      <trkpt lat="44.55187" lon="1.80246">
        <ele>279.88</ele>
        <time>2025-04-16T12:07:07Z</time>
      </trkpt>
      <trkpt lat="44.55194" lon="1.80237">
        <ele>278.92</ele>
        <time>2025-04-16T12:07:18Z</time>
      </trkpt>
      <trkpt lat="44.55198" lon="1.80205">
        <ele>277.48</ele>
        <time>2025-04-16T12:07:38Z</time>
      </trkpt>
      <trkpt lat="44.55206" lon="1.80176">
        <ele>276.52</ele>
        <time>2025-04-16T12:07:55Z</time>
      </trkpt>
      <trkpt lat="44.55219" lon="1.80151">
        <ele>275.07</ele>
        <time>2025-04-16T12:08:14Z</time>
      </trkpt>
      <trkpt lat="44.55214" lon="1.80135">
        <ele>276.52</ele>
        <time>2025-04-16T12:08:28Z</time>
      </trkpt>
      <trkpt lat="44.55207" lon="1.80122">
        <ele>277.96</ele>
        <time>2025-04-16T12:08:38Z</time>
      </trkpt>
      <trkpt lat="44.55198" lon="1.80117">
        <ele>279.4</ele>
        <time>2025-04-16T12:08:48Z</time>
      </trkpt>
      <trkpt lat="44.55157" lon="1.80107">
        <ele>283.73</ele>
        <time>2025-04-16T12:09:28Z</time>
      </trkpt>
      <trkpt lat="44.55155" lon="1.80093">
        <ele>284.21</ele>
        <time>2025-04-16T12:09:37Z</time>
      </trkpt>
      <trkpt lat="44.55162" lon="1.80026">
        <ele>287.57</ele>
        <time>2025-04-16T12:10:16Z</time>
      </trkpt>
      <trkpt lat="44.55161" lon="1.79988">
        <ele>289.49</ele>
        <time>2025-04-16T12:10:35Z</time>
      </trkpt>
      <trkpt lat="44.55169" lon="1.79925">
        <ele>290.46</ele>
        <time>2025-04-16T12:11:09Z</time>
      </trkpt>
      <trkpt lat="44.55181" lon="1.79859">
        <ele>289.01</ele>
        <time>2025-04-16T12:11:45Z</time>
      </trkpt>
      <trkpt lat="44.55182" lon="1.79844">
        <ele>289.01</ele>
        <time>2025-04-16T12:11:53Z</time>
      </trkpt>
      <trkpt lat="44.5518" lon="1.79828">
        <ele>289.01</ele>
        <time>2025-04-16T12:12:01Z</time>
      </trkpt>
      <trkpt lat="44.55173" lon="1.7982">
        <ele>288.53</ele>
        <time>2025-04-16T12:12:09Z</time>
      </trkpt>
      <trkpt lat="44.55153" lon="1.79828">
        <ele>286.61</ele>
        <time>2025-04-16T12:12:28Z</time>
      </trkpt>
      <trkpt lat="44.55146" lon="1.79821">
        <ele>285.65</ele>
        <time>2025-04-16T12:12:54Z</time>
      </trkpt>
      <trkpt lat="44.5512" lon="1.7977">
        <ele>283.73</ele>
        <time>2025-04-16T12:13:33Z</time>
      </trkpt>
      <trkpt lat="44.55112" lon="1.79758">
        <ele>282.77</ele>
        <time>2025-04-16T12:13:44Z</time>
      </trkpt>
      <trkpt lat="44.55105" lon="1.79657">
        <ele>287.57</ele>
        <time>2025-04-16T12:14:43Z</time>
      </trkpt>
      <trkpt lat="44.55108" lon="1.7962">
        <ele>288.53</ele>
        <time>2025-04-16T12:15:01Z</time>
      </trkpt>
      <trkpt lat="44.55112" lon="1.79603">
        <ele>289.01</ele>
        <time>2025-04-16T12:15:11Z</time>
      </trkpt>
      <trkpt lat="44.55112" lon="1.79587">
        <ele>289.49</ele>
        <time>2025-04-16T12:15:19Z</time>
      </trkpt>
      <trkpt lat="44.55122" lon="1.79519">
        <ele>291.42</ele>
        <time>2025-04-16T12:15:58Z</time>
      </trkpt>
      <trkpt lat="44.55117" lon="1.79447">
        <ele>292.38</ele>
        <time>2025-04-16T12:16:36Z</time>
      </trkpt>
      <trkpt lat="44.5511" lon="1.79397">
        <ele>293.34</ele>
        <time>2025-04-16T12:17:02Z</time>
      </trkpt>
      <trkpt lat="44.5511" lon="1.79379">
        <ele>293.34</ele>
        <time>2025-04-16T12:17:12Z</time>
      </trkpt>
      <trkpt lat="44.55117" lon="1.79346">
        <ele>292.86</ele>
        <time>2025-04-16T12:17:30Z</time>
      </trkpt>
      <trkpt lat="44.55126" lon="1.79318">
        <ele>292.86</ele>
        <time>2025-04-16T12:17:48Z</time>
      </trkpt>
      <trkpt lat="44.55142" lon="1.79296">
        <ele>292.86</ele>
        <time>2025-04-16T12:18:05Z</time>
      </trkpt>
      <trkpt lat="44.55149" lon="1.79283">
        <ele>292.86</ele>
        <time>2025-04-16T12:18:12Z</time>
      </trkpt>
      <trkpt lat="44.55167" lon="1.79221">
        <ele>293.34</ele>
        <time>2025-04-16T12:18:44Z</time>
      </trkpt>
      <trkpt lat="44.55194" lon="1.79161">
        <ele>290.94</ele>
        <time>2025-04-16T12:19:21Z</time>
      </trkpt>
      <trkpt lat="44.55228" lon="1.79108">
        <ele>289.97</ele>
        <time>2025-04-16T12:19:57Z</time>
      </trkpt>
      <trkpt lat="44.55247" lon="1.79083">
        <ele>289.97</ele>
        <time>2025-04-16T12:20:14Z</time>
      </trkpt>
      <trkpt lat="44.5526" lon="1.79055">
        <ele>289.49</ele>
        <time>2025-04-16T12:20:29Z</time>
      </trkpt>
      <trkpt lat="44.55261" lon="1.7904">
        <ele>289.49</ele>
        <time>2025-04-16T12:20:37Z</time>
      </trkpt>
      <trkpt lat="44.5527" lon="1.79009">
        <ele>292.38</ele>
        <time>2025-04-16T12:20:55Z</time>
      </trkpt>
      <trkpt lat="44.55286" lon="1.78969">
        <ele>296.22</ele>
        <time>2025-04-16T12:21:34Z</time>
      </trkpt>
      <trkpt lat="44.55286" lon="1.78939">
        <ele>299.11</ele>
        <time>2025-04-16T12:21:55Z</time>
      </trkpt>
      <trkpt lat="44.55279" lon="1.78878">
        <ele>304.88</ele>
        <time>2025-04-16T12:22:43Z</time>
      </trkpt>
      <trkpt lat="44.55244" lon="1.78413">
        <ele>312.57</ele>
        <time>2025-04-16T12:27:16Z</time>
      </trkpt>
      <trkpt lat="44.55235" lon="1.78326">
        <ele>310.16</ele>
        <time>2025-04-16T12:28:01Z</time>
      </trkpt>
      <trkpt lat="44.55226" lon="1.78147">
        <ele>322.66</ele>
        <time>2025-04-16T12:30:01Z</time>
      </trkpt>
      <trkpt lat="44.55223" lon="1.78132">
        <ele>324.1</ele>
        <time>2025-04-16T12:30:12Z</time>
      </trkpt>
      <trkpt lat="44.55196" lon="1.78072">
        <ele>327.47</ele>
        <time>2025-04-16T12:35:02Z</time>
      </trkpt>
      <trkpt lat="44.55186" lon="1.78047">
        <ele>327.95</ele>
        <time>2025-04-16T12:35:18Z</time>
      </trkpt>
      <trkpt lat="44.55161" lon="1.77998">
        <ele>328.43</ele>
        <time>2025-04-16T12:35:50Z</time>
      </trkpt>
      <trkpt lat="44.5514" lon="1.77947">
        <ele>326.02</ele>
        <time>2025-04-16T12:36:22Z</time>
      </trkpt>
      <trkpt lat="44.55092" lon="1.77844">
        <ele>336.2</ele>
        <time>2025-04-16T12:37:27Z</time>
      </trkpt>
      <trkpt lat="44.5508" lon="1.77816">
        <ele>322.66</ele>
        <time>2025-04-16T12:37:44Z</time>
      </trkpt>
      <trkpt lat="44.55067" lon="1.77789">
        <ele>336.2</ele>
        <time>2025-04-16T12:38:01Z</time>
      </trkpt>
      <trkpt lat="44.55045" lon="1.77737">
        <ele>322.66</ele>
        <time>2025-04-16T12:38:33Z</time>
      </trkpt>
      <trkpt lat="44.5502" lon="1.77688">
        <ele>322.66</ele>
        <time>2025-04-16T12:39:27Z</time>
      </trkpt>
      <trkpt lat="44.55007" lon="1.77658">
        <ele>334.6</ele>
      </trkpt>
      <trkpt lat="44.55003" lon="1.77628">
        <ele>321.22</ele>
        <time>2025-04-16T12:40:05Z</time>
      </trkpt>
      <trkpt lat="44.55003" lon="1.77598">
        <ele>335.5</ele>
        <time>2025-04-16T12:40:21Z</time>
      </trkpt>
      <trkpt lat="44.55005" lon="1.77587">
        <ele>335.8</ele>
      </trkpt>
      <trkpt lat="44.55008" lon="1.77576">
        <ele>336.7</ele>
      </trkpt>
      <trkpt lat="44.55017" lon="1.77554">
        <ele>324.58</ele>
        <time>2025-04-16T12:40:48Z</time>
      </trkpt>
      <trkpt lat="44.55022" lon="1.77542">
        <ele>339.6</ele>
        <time>2025-04-16T12:40:57Z</time>
      </trkpt>
      <trkpt lat="44.55027" lon="1.77513">
        <ele>326.99</ele>
        <time>2025-04-16T12:41:14Z</time>
      </trkpt>
      <trkpt lat="44.55029" lon="1.77478">
        <ele>341</ele>
        <time>2025-04-16T12:41:33Z</time>
      </trkpt>
      <trkpt lat="44.55032" lon="1.77465">
        <ele>341.1</ele>
      </trkpt>
      <trkpt lat="44.55038" lon="1.77449">
        <ele>341.1</ele>
        <time>2025-04-16T12:41:51Z</time>
      </trkpt>
      <trkpt lat="44.55036" lon="1.77419">
        <ele>340.1</ele>
        <time>2025-04-16T12:42:07Z</time>
      </trkpt>
      <trkpt lat="44.55033" lon="1.77405">
        <ele>339.6</ele>
        <time>2025-04-16T12:42:15Z</time>
      </trkpt>
      <trkpt lat="44.55029" lon="1.77391">
        <ele>325.54</ele>
        <time>2025-04-16T12:42:34Z</time>
      </trkpt>
      <trkpt lat="44.55039" lon="1.77367">
        <ele>324.1</ele>
        <time>2025-04-16T12:42:56Z</time>
      </trkpt>
      <trkpt lat="44.55048" lon="1.7736">
        <ele>323.62</ele>
        <time>2025-04-16T12:43:13Z</time>
      </trkpt>
      <trkpt lat="44.55066" lon="1.77356">
        <ele>321.7</ele>
        <time>2025-04-16T12:43:54Z</time>
      </trkpt>
      <trkpt lat="44.55059" lon="1.77345">
        <ele>321.22</ele>
        <time>2025-04-16T12:45:35Z</time>
      </trkpt>
      <trkpt lat="44.55052" lon="1.77346">
        <ele>321.22</ele>
        <time>2025-04-16T12:45:46Z</time>
      </trkpt>
      <trkpt lat="44.55045" lon="1.77337">
        <ele>320.74</ele>
        <time>2025-04-16T12:46:03Z</time>
      </trkpt>
      <trkpt lat="44.55041" lon="1.77347">
        <ele>322.18</ele>
        <time>2025-04-16T12:46:51Z</time>
      </trkpt>
      <trkpt lat="44.55041" lon="1.77359">
        <ele>324.58</ele>
        <time>2025-04-16T12:47:03Z</time>
      </trkpt>
      <trkpt lat="44.55032" lon="1.77377">
        <ele>338.1</ele>
        <time>2025-04-16T13:06:41Z</time>
      </trkpt>
      <trkpt lat="44.55028" lon="1.77393">
        <ele>339.1</ele>
      </trkpt>
      <trkpt lat="44.55018" lon="1.77396">
        <ele>338.9</ele>
        <time>2025-04-16T13:07:52Z</time>
      </trkpt>
      <trkpt lat="44.55011" lon="1.77403">
        <ele>327.47</ele>
        <time>2025-04-16T13:08:01Z</time>
      </trkpt>
      <trkpt lat="44.55001" lon="1.77411">
        <ele>327.47</ele>
        <time>2025-04-16T13:08:12Z</time>
      </trkpt>
      <trkpt lat="44.54958" lon="1.77416">
        <ele>322.66</ele>
        <time>2025-04-16T13:08:49Z</time>
      </trkpt>
      <trkpt lat="44.54947" lon="1.77413">
        <ele>321.22</ele>
        <time>2025-04-16T13:08:59Z</time>
      </trkpt>
      <trkpt lat="44.54926" lon="1.77427">
        <ele>317.37</ele>
        <time>2025-04-16T13:09:20Z</time>
      </trkpt>
      <trkpt lat="44.54917" lon="1.77439">
        <ele>314.97</ele>
        <time>2025-04-16T13:09:31Z</time>
      </trkpt>
      <trkpt lat="44.54907" lon="1.77447">
        <ele>313.05</ele>
        <time>2025-04-16T13:09:41Z</time>
      </trkpt>
      <trkpt lat="44.54897" lon="1.77449">
        <ele>311.12</ele>
        <time>2025-04-16T13:09:51Z</time>
      </trkpt>
      <trkpt lat="44.54886" lon="1.77446">
        <ele>309.2</ele>
        <time>2025-04-16T13:10:02Z</time>
      </trkpt>
      <trkpt lat="44.54876" lon="1.77448">
        <ele>307.76</ele>
        <time>2025-04-16T13:10:13Z</time>
      </trkpt>
      <trkpt lat="44.54868" lon="1.77457">
        <ele>304.88</ele>
        <time>2025-04-16T13:10:25Z</time>
      </trkpt>
      <trkpt lat="44.54869" lon="1.77495">
        <ele>299.59</ele>
        <time>2025-04-16T13:10:55Z</time>
      </trkpt>
      <trkpt lat="44.5486" lon="1.77564">
        <ele>292.38</ele>
        <time>2025-04-16T13:11:42Z</time>
      </trkpt>
      <trkpt lat="44.54852" lon="1.77595">
        <ele>288.05</ele>
        <time>2025-04-16T13:12:06Z</time>
      </trkpt>
      <trkpt lat="44.54841" lon="1.77625">
        <ele>283.25</ele>
        <time>2025-04-16T13:12:35Z</time>
      </trkpt>
      <trkpt lat="44.54834" lon="1.77637">
        <ele>279.88</ele>
        <time>2025-04-16T13:12:48Z</time>
      </trkpt>
      <trkpt lat="44.54829" lon="1.77653">
        <ele>277.48</ele>
        <time>2025-04-16T13:13:00Z</time>
      </trkpt>
      <trkpt lat="44.54813" lon="1.77683">
        <ele>273.15</ele>
        <time>2025-04-16T13:13:24Z</time>
      </trkpt>
      <trkpt lat="44.54808" lon="1.77699">
        <ele>271.23</ele>
        <time>2025-04-16T13:13:37Z</time>
      </trkpt>
      <trkpt lat="44.54793" lon="1.77727">
        <ele>266.9</ele>
        <time>2025-04-16T13:14:00Z</time>
      </trkpt>
      <trkpt lat="44.54772" lon="1.77793">
        <ele>259.69</ele>
        <time>2025-04-16T13:14:46Z</time>
      </trkpt>
      <trkpt lat="44.54756" lon="1.7786">
        <ele>254.41</ele>
        <time>2025-04-16T13:15:26Z</time>
      </trkpt>
      <trkpt lat="44.54743" lon="1.77889">
        <ele>249.6</ele>
        <time>2025-04-16T13:15:50Z</time>
      </trkpt>
      <trkpt lat="44.54727" lon="1.77917">
        <ele>244.79</ele>
        <time>2025-04-16T13:16:18Z</time>
      </trkpt>
      <trkpt lat="44.54716" lon="1.7793">
        <ele>242.87</ele>
        <time>2025-04-16T13:16:29Z</time>
      </trkpt>
      <trkpt lat="44.54709" lon="1.77943">
        <ele>240.95</ele>
        <time>2025-04-16T13:16:40Z</time>
      </trkpt>
      <trkpt lat="44.54704" lon="1.77958">
        <ele>238.06</ele>
        <time>2025-04-16T13:16:57Z</time>
      </trkpt>
      <trkpt lat="44.54706" lon="1.77991">
        <ele>230.85</ele>
        <time>2025-04-16T13:17:32Z</time>
      </trkpt>
      <trkpt lat="44.54704" lon="1.78013">
        <ele>227.49</ele>
        <time>2025-04-16T13:17:50Z</time>
      </trkpt>
      <trkpt lat="44.547" lon="1.78027">
        <ele>225.09</ele>
        <time>2025-04-16T13:18:12Z</time>
      </trkpt>
      <trkpt lat="44.54673" lon="1.77969">
        <ele>219.8</ele>
        <time>2025-04-16T13:19:12Z</time>
      </trkpt>
      <trkpt lat="44.54667" lon="1.7793">
        <ele>224.2</ele>
        <time>2025-04-16T13:19:29Z</time>
      </trkpt>
      <trkpt lat="44.54688" lon="1.77825">
        <ele>208.74</ele>
        <time>2025-04-16T13:20:28Z</time>
      </trkpt>
      <trkpt lat="44.54685" lon="1.77812">
        <ele>208.26</ele>
        <time>2025-04-16T13:20:37Z</time>
      </trkpt>
      <trkpt lat="44.54672" lon="1.77789">
        <ele>205.86</ele>
        <time>2025-04-16T13:20:55Z</time>
      </trkpt>
      <trkpt lat="44.54662" lon="1.77762">
        <ele>203.46</ele>
        <time>2025-04-16T13:21:12Z</time>
      </trkpt>
      <trkpt lat="44.54655" lon="1.77719">
        <ele>200.57</ele>
        <time>2025-04-16T13:21:40Z</time>
      </trkpt>
      <trkpt lat="44.54629" lon="1.77671">
        <ele>196.25</ele>
        <time>2025-04-16T13:22:14Z</time>
      </trkpt>
      <trkpt lat="44.54624" lon="1.7764">
        <ele>194.8</ele>
        <time>2025-04-16T13:22:31Z</time>
      </trkpt>
      <trkpt lat="44.54627" lon="1.7758">
        <ele>190.96</ele>
        <time>2025-04-16T13:23:04Z</time>
      </trkpt>
      <trkpt lat="44.54625" lon="1.77564">
        <ele>190.48</ele>
        <time>2025-04-16T13:23:13Z</time>
      </trkpt>
      <trkpt lat="44.54616" lon="1.77552">
        <ele>189.04</ele>
        <time>2025-04-16T13:23:22Z</time>
      </trkpt>
      <trkpt lat="44.54597" lon="1.77538">
        <ele>187.11</ele>
        <time>2025-04-16T13:23:39Z</time>
      </trkpt>
      <trkpt lat="44.54588" lon="1.77529">
        <ele>186.15</ele>
        <time>2025-04-16T13:23:52Z</time>
      </trkpt>
      <trkpt lat="44.54574" lon="1.7749">
        <ele>183.27</ele>
        <time>2025-04-16T13:24:17Z</time>
      </trkpt>
      <trkpt lat="44.54574" lon="1.77462">
        <ele>181.83</ele>
        <time>2025-04-16T13:24:34Z</time>
      </trkpt>
      <trkpt lat="44.54582" lon="1.77455">
        <ele>181.83</ele>
        <time>2025-04-16T13:24:43Z</time>
      </trkpt>
      <trkpt lat="44.54589" lon="1.77443">
        <ele>181.35</ele>
        <time>2025-04-16T13:24:57Z</time>
      </trkpt>
      <trkpt lat="44.54592" lon="1.7743">
        <ele>181.35</ele>
        <time>2025-04-16T13:25:11Z</time>
      </trkpt>
      <trkpt lat="44.54593" lon="1.77433">
        <ele>180.87</ele>
        <time>2025-04-16T13:26:37Z</time>
      </trkpt>
      <trkpt lat="44.54588" lon="1.77445">
        <ele>179.9</ele>
        <time>2025-04-16T13:27:07Z</time>
      </trkpt>
      <trkpt lat="44.54577" lon="1.77461">
        <ele>180.87</ele>
        <time>2025-04-16T13:27:24Z</time>
      </trkpt>
      <trkpt lat="44.54571" lon="1.77456">
        <ele>180.87</ele>
        <time>2025-04-16T13:27:35Z</time>
      </trkpt>
      <trkpt lat="44.54565" lon="1.77443">
        <ele>179.42</ele>
        <time>2025-04-16T13:27:44Z</time>
      </trkpt>
      <trkpt lat="44.54548" lon="1.77426">
        <ele>177.5</ele>
        <time>2025-04-16T13:28:00Z</time>
      </trkpt>
      <trkpt lat="44.54544" lon="1.77414">
        <ele>177.02</ele>
        <time>2025-04-16T13:28:08Z</time>
      </trkpt>
      <trkpt lat="44.54545" lon="1.774">
        <ele>176.06</ele>
        <time>2025-04-16T13:28:16Z</time>
      </trkpt>
      <trkpt lat="44.54547" lon="1.77386">
        <ele>180.8</ele>
        <time>2025-04-16T13:28:26Z</time>
      </trkpt>
      <trkpt lat="44.54549" lon="1.77375">
        <ele>175.58</ele>
        <time>2025-04-16T13:28:51Z</time>
      </trkpt>
      <trkpt lat="44.54552" lon="1.77362">
        <ele>174.62</ele>
        <time>2025-04-16T13:28:59Z</time>
      </trkpt>
      <trkpt lat="44.54553" lon="1.77346">
        <ele>174.62</ele>
        <time>2025-04-16T13:29:08Z</time>
      </trkpt>
      <trkpt lat="44.54549" lon="1.77315">
        <ele>174.14</ele>
        <time>2025-04-16T13:29:24Z</time>
      </trkpt>
      <trkpt lat="44.54543" lon="1.77287">
        <ele>173.66</ele>
        <time>2025-04-16T13:29:40Z</time>
      </trkpt>
      <trkpt lat="44.54534" lon="1.77257">
        <ele>173.17</ele>
        <time>2025-04-16T13:29:56Z</time>
      </trkpt>
      <trkpt lat="44.5453" lon="1.77227">
        <ele>172.69</ele>
        <time>2025-04-16T13:30:12Z</time>
      </trkpt>
      <trkpt lat="44.54534" lon="1.77169">
        <ele>171.73</ele>
        <time>2025-04-16T13:30:42Z</time>
      </trkpt>
      <trkpt lat="44.54547" lon="1.7711">
        <ele>170.77</ele>
        <time>2025-04-16T13:31:13Z</time>
      </trkpt>
      <trkpt lat="44.54589" lon="1.77006">
        <ele>169.33</ele>
        <time>2025-04-16T13:32:15Z</time>
      </trkpt>
      <trkpt lat="44.54609" lon="1.76921">
        <ele>168.37</ele>
        <time>2025-04-16T13:33:03Z</time>
      </trkpt>
      <trkpt lat="44.54626" lon="1.76865">
        <ele>168.37</ele>
        <time>2025-04-16T13:33:36Z</time>
      </trkpt>
      <trkpt lat="44.54656" lon="1.76784">
        <ele>167.89</ele>
        <time>2025-04-16T13:34:25Z</time>
      </trkpt>
      <trkpt lat="44.54681" lon="1.76735">
        <ele>167.41</ele>
        <time>2025-04-16T13:34:59Z</time>
      </trkpt>
      <trkpt lat="44.54702" lon="1.76685">
        <ele>166.93</ele>
        <time>2025-04-16T13:35:31Z</time>
      </trkpt>
      <trkpt lat="44.54709" lon="1.76654">
        <ele>166.45</ele>
        <time>2025-04-16T13:35:48Z</time>
      </trkpt>
      <trkpt lat="44.54715" lon="1.76596">
        <ele>165.96</ele>
        <time>2025-04-16T13:36:21Z</time>
      </trkpt>
      <trkpt lat="44.54714" lon="1.76538">
        <ele>165.48</ele>
        <time>2025-04-16T13:36:52Z</time>
      </trkpt>
      <trkpt lat="44.54718" lon="1.76525">
        <ele>165.48</ele>
        <time>2025-04-16T13:37:01Z</time>
      </trkpt>
      <trkpt lat="44.54732" lon="1.76508">
        <ele>166.93</ele>
        <time>2025-04-16T13:37:22Z</time>
      </trkpt>
      <trkpt lat="44.54759" lon="1.76488">
        <ele>168.37</ele>
        <time>2025-04-16T13:37:46Z</time>
      </trkpt>
      <trkpt lat="44.54787" lon="1.76475">
        <ele>168.37</ele>
        <time>2025-04-16T13:38:20Z</time>
      </trkpt>
      <trkpt lat="44.54797" lon="1.76487">
        <ele>166.45</ele>
        <time>2025-04-16T13:38:31Z</time>
      </trkpt>
      <trkpt lat="44.5481" lon="1.76513">
        <ele>164.52</ele>
        <time>2025-04-16T13:38:49Z</time>
      </trkpt>
      <trkpt lat="44.54818" lon="1.76544">
        <ele>162.12</ele>
        <time>2025-04-16T13:39:07Z</time>
      </trkpt>
      <trkpt lat="44.5482" lon="1.7656">
        <ele>161.16</ele>
        <time>2025-04-16T13:39:17Z</time>
      </trkpt>
      <trkpt lat="44.54824" lon="1.76576">
        <ele>165.7</ele>
        <time>2025-04-16T13:39:55Z</time>
      </trkpt>
      <trkpt lat="44.54837" lon="1.76621">
        <ele>157.31</ele>
        <time>2025-04-16T13:40:24Z</time>
      </trkpt>
      <trkpt lat="44.54845" lon="1.76657">
        <ele>156.35</ele>
        <time>2025-04-16T13:40:47Z</time>
      </trkpt>
      <trkpt lat="44.54859" lon="1.76686">
        <ele>155.39</ele>
        <time>2025-04-16T13:41:04Z</time>
      </trkpt>
      <trkpt lat="44.54871" lon="1.76747">
        <ele>155.39</ele>
        <time>2025-04-16T13:41:40Z</time>
      </trkpt>
      <trkpt lat="44.54904" lon="1.76837">
        <ele>154.91</ele>
        <time>2025-04-16T13:42:34Z</time>
      </trkpt>
      <trkpt lat="44.5492" lon="1.76866">
        <ele>154.43</ele>
        <time>2025-04-16T13:43:18Z</time>
      </trkpt>
      <trkpt lat="44.54931" lon="1.76893">
        <ele>153.95</ele>
        <time>2025-04-16T13:43:38Z</time>
      </trkpt>
      <trkpt lat="44.54945" lon="1.76912">
        <ele>152.99</ele>
        <time>2025-04-16T13:44:52Z</time>
      </trkpt>
      <trkpt lat="44.5495" lon="1.76923">
        <ele>152.99</ele>
        <time>2025-04-16T13:45:03Z</time>
      </trkpt>
      <trkpt lat="44.54956" lon="1.76945">
        <ele>152.51</ele>
        <time>2025-04-16T13:45:25Z</time>
      </trkpt>
      <trkpt lat="44.54988" lon="1.77001">
        <ele>150.1</ele>
        <time>2025-04-16T13:46:12Z</time>
      </trkpt>
      <trkpt lat="44.55005" lon="1.77036">
        <ele>148.66</ele>
        <time>2025-04-16T13:46:37Z</time>
      </trkpt>
      <trkpt lat="44.55021" lon="1.77063">
        <ele>147.7</ele>
        <time>2025-04-16T13:46:58Z</time>
      </trkpt>
      <trkpt lat="44.55043" lon="1.7709">
        <ele>146.74</ele>
        <time>2025-04-16T13:47:20Z</time>
      </trkpt>
      <trkpt lat="44.55054" lon="1.77099">
        <ele>146.74</ele>
        <time>2025-04-16T13:47:29Z</time>
      </trkpt>
      <trkpt lat="44.55069" lon="1.77106">
        <ele>145.78</ele>
        <time>2025-04-16T13:47:40Z</time>
      </trkpt>
      <trkpt lat="44.55084" lon="1.77103">
        <ele>145.78</ele>
        <time>2025-04-16T13:47:51Z</time>
      </trkpt>
      <trkpt lat="44.55109" lon="1.77076">
        <ele>145.3</ele>
        <time>2025-04-16T13:48:15Z</time>
      </trkpt>
      <trkpt lat="44.5512" lon="1.77071">
        <ele>145.3</ele>
        <time>2025-04-16T13:48:24Z</time>
      </trkpt>
      <trkpt lat="44.55129" lon="1.77078">
        <ele>145.3</ele>
        <time>2025-04-16T13:48:32Z</time>
      </trkpt>
      <trkpt lat="44.55143" lon="1.77096">
        <ele>145.3</ele>
        <time>2025-04-16T13:48:56Z</time>
      </trkpt>
      <trkpt lat="44.55197" lon="1.77154">
        <ele>144.82</ele>
        <time>2025-04-16T13:49:49Z</time>
      </trkpt>
      <trkpt lat="44.5524" lon="1.77192">
        <ele>144.34</ele>
        <time>2025-04-16T13:50:29Z</time>
      </trkpt>
      <trkpt lat="44.5525" lon="1.77196">
        <ele>144.34</ele>
        <time>2025-04-16T13:50:38Z</time>
      </trkpt>
      <trkpt lat="44.55261" lon="1.77194">
        <ele>151.8</ele>
        <time>2025-04-16T13:50:51Z</time>
      </trkpt>
      <trkpt lat="44.55258" lon="1.77211">
        <ele>142.89</ele>
        <time>2025-04-16T13:51:06Z</time>
      </trkpt>
      <trkpt lat="44.55264" lon="1.77221">
        <ele>142.89</ele>
        <time>2025-04-16T13:51:18Z</time>
      </trkpt>
      <trkpt lat="44.55274" lon="1.77227">
        <ele>150.3</ele>
        <time>2025-04-16T13:51:27Z</time>
      </trkpt>
      <trkpt lat="44.55284" lon="1.77233">
        <ele>150.3</ele>
      </trkpt>
      <trkpt lat="44.55289" lon="1.7722">
        <ele>144.34</ele>
        <time>2025-04-16T13:51:56Z</time>
      </trkpt>
      <trkpt lat="44.55282" lon="1.77205">
        <ele>145.3</ele>
        <time>2025-04-16T13:52:06Z</time>
      </trkpt>
      <trkpt lat="44.55283" lon="1.77191">
        <ele>145.3</ele>
        <time>2025-04-16T13:52:15Z</time>
      </trkpt>
      <trkpt lat="44.5529" lon="1.77178">
        <ele>145.78</ele>
        <time>2025-04-16T13:52:25Z</time>
      </trkpt>
      <trkpt lat="44.5529" lon="1.77166">
        <ele>146.26</ele>
        <time>2025-04-16T13:52:39Z</time>
      </trkpt>
      <trkpt lat="44.553" lon="1.77182">
        <ele>143.37</ele>
        <time>2025-04-16T13:53:28Z</time>
      </trkpt>
      <trkpt lat="44.55292" lon="1.77171">
        <ele>142.89</ele>
        <time>2025-04-16T13:54:11Z</time>
      </trkpt>
      <trkpt lat="44.55311" lon="1.77141">
        <ele>153.7</ele>
        <time>2025-04-16T13:54:50Z</time>
      </trkpt>
      <trkpt lat="44.55337" lon="1.77145">
        <ele>144.34</ele>
        <time>2025-04-16T13:55:15Z</time>
      </trkpt>
      <trkpt lat="44.55339" lon="1.77131">
        <ele>144.82</ele>
        <time>2025-04-16T13:55:26Z</time>
      </trkpt>
      <trkpt lat="44.55348" lon="1.77119">
        <ele>145.78</ele>
        <time>2025-04-16T13:55:44Z</time>
      </trkpt>
      <trkpt lat="44.55359" lon="1.77124">
        <ele>145.78</ele>
        <time>2025-04-16T13:55:56Z</time>
      </trkpt>
      <trkpt lat="44.55365" lon="1.77132">
        <ele>145.78</ele>
        <time>2025-04-16T13:56:07Z</time>
      </trkpt>
      <trkpt lat="44.55368" lon="1.77146">
        <ele>144.82</ele>
        <time>2025-04-16T13:56:20Z</time>
      </trkpt>
      <trkpt lat="44.55375" lon="1.7716">
        <ele>144.34</ele>
        <time>2025-04-16T13:56:44Z</time>
      </trkpt>
    </trkseg>
  </trk>
</gpx>